Observation data for Colorado City on 05/15/2018      Previous  Date  Next       Current Mesonet Observations  Soil Data  Daily Summary Page  Observations in Plain Language
KCO2 150500Z 18008KT 20/16 A2995 RMK A01 T01990158  RH  077%=      5-min Rain = 0
KCO2 150501Z 18009KT 20/16 A2995 RMK A01 T01990157  RH  077%=      5-min Rain = 0
KCO2 150502Z 17011KT 20/16 A2995 RMK A01 T01990157  RH  076%=      5-min Rain = 0
KCO2 150503Z 18010KT 20/16 A2995 RMK A01 T02000156  RH  076%=      5-min Rain = 0
KCO2 150504Z 18011KT 20/16 A2995 RMK A01 T02000156  RH  076%=      5-min Rain = 0
KCO2 150505Z 17010KT 20/16 A2995 RMK A01 T02000156  RH  076%=      5-min Rain = 0
KCO2 150506Z 17010KT 20/16 A2995 RMK A01 T02000155  RH  075%=      5-min Rain = 0
KCO2 150507Z 17008KT 20/16 A2995 RMK A01 T02000155  RH  075%=      5-min Rain = 0
KCO2 150508Z 17010KT 20/16 A2995 RMK A01 T02000156  RH  075%=      5-min Rain = 0
KCO2 150509Z 18011KT 20/16 A2995 RMK A01 T02000156  RH  075%=      5-min Rain = 0
KCO2 150510Z 17009KT 20/16 A2995 RMK A01 T02000156  RH  075%=      5-min Rain = 0
KCO2 150511Z 18009KT 20/16 A2995 RMK A01 T02010156  RH  075%=      5-min Rain = 0
KCO2 150512Z 17009KT 20/16 A2995 RMK A01 T02000156  RH  076%=      5-min Rain = 0
KCO2 150513Z 17009KT 20/16 A2995 RMK A01 T02000156  RH  076%=      5-min Rain = 0
KCO2 150514Z 17009KT 20/16 A2995 RMK A01 T02000156  RH  076%=      5-min Rain = 0
KCO2 150515Z 17008KT 20/16 A2995 RMK A01 T02000156  RH  076%=      5-min Rain = 0
KCO2 150516Z 16008KT 20/16 A2995 RMK A01 T02000156  RH  076%=      5-min Rain = 0
KCO2 150517Z 16008KT 20/16 A2995 RMK A01 T01990156  RH  076%=      5-min Rain = 0
KCO2 150518Z 16008KT 20/16 A2995 RMK A01 T01990156  RH  076%=      5-min Rain = 0
KCO2 150519Z 17008KT 20/16 A2995 RMK A01 T01990156  RH  076%=      5-min Rain = 0
KCO2 150520Z 17008KT 20/16 A2995 RMK A01 T01990156  RH  076%=      5-min Rain = 0
KCO2 150521Z 16008KT 20/16 A2995 RMK A01 T01990156  RH  076%=      5-min Rain = 0
KCO2 150522Z 17008KT 20/16 A2995 RMK A01 T01990156  RH  076%=      5-min Rain = 0
KCO2 150523Z 17008KT 20/16 A2995 RMK A01 T01980156  RH  076%=      5-min Rain = 0
KCO2 150524Z 16007KT 20/16 A2995 RMK A01 T01980155  RH  076%=      5-min Rain = 0
KCO2 150525Z 17008KT 20/16 A2995 RMK A01 T01980156  RH  077%=      5-min Rain = 0
KCO2 150526Z 16008KT 20/16 A2995 RMK A01 T01980156  RH  077%=      5-min Rain = 0
KCO2 150527Z 17008KT 20/16 A2995 RMK A01 T01970155  RH  077%=      5-min Rain = 0
KCO2 150528Z 16008KT 20/16 A2995 RMK A01 T01970155  RH  077%=      5-min Rain = 0
KCO2 150529Z 16007KT 20/16 A2995 RMK A01 T01970155  RH  077%=      5-min Rain = 0
KCO2 150530Z 16007KT 20/16 A2995 RMK A01 T01970155  RH  077%=      5-min Rain = 0
KCO2 150531Z 16005KT 20/16 A2995 RMK A01 T01970155  RH  077%=      5-min Rain = 0
KCO2 150532Z 16008KT 20/16 A2995 RMK A01 T01970155  RH  077%=      5-min Rain = 0
KCO2 150533Z 16007KT 20/15 A2995 RMK A01 T01960154  RH  077%=      5-min Rain = 0
KCO2 150534Z 16006KT 20/15 A2995 RMK A01 T01960154  RH  076%=      5-min Rain = 0
KCO2 150535Z 16007KT 20/15 A2995 RMK A01 T01960154  RH  076%=      5-min Rain = 0
KCO2 150536Z 17008KT 20/15 A2995 RMK A01 T01960154  RH  077%=      5-min Rain = 0
KCO2 150537Z 16007KT 20/15 A2995 RMK A01 T01960154  RH  076%=      5-min Rain = 0
KCO2 150538Z 16007KT 20/15 A2995 RMK A01 T01960153  RH  076%=      5-min Rain = 0
KCO2 150539Z 15008KT 20/15 A2995 RMK A01 T01960152  RH  076%=      5-min Rain = 0
KCO2 150540Z 15007KT 20/15 A2995 RMK A01 T01960152  RH  076%=      5-min Rain = 0
KCO2 150541Z 16007KT 20/15 A2995 RMK A01 T01960152  RH  076%=      5-min Rain = 0
KCO2 150542Z 15007KT 20/15 A2995 RMK A01 T01960152  RH  076%=      5-min Rain = 0
KCO2 150543Z 15007KT 20/15 A2995 RMK A01 T01960152  RH  076%=      5-min Rain = 0
KCO2 150544Z 15006KT 20/15 A2995 RMK A01 T01950151  RH  076%=      5-min Rain = 0
KCO2 150545Z 15006KT 20/15 A2995 RMK A01 T01950151  RH  076%=      5-min Rain = 0
KCO2 150546Z 15007KT 20/15 A2996 RMK A01 T01950151  RH  076%=      5-min Rain = 0
KCO2 150547Z 15007KT 19/15 A2996 RMK A01 T01940151  RH  076%=      5-min Rain = 0
KCO2 150548Z 15007KT 20/15 A2996 RMK A01 T01950150  RH  075%=      5-min Rain = 0
KCO2 150549Z 15007KT 20/15 A2996 RMK A01 T01950150  RH  075%=      5-min Rain = 0
KCO2 150550Z 15006KT 19/15 A2996 RMK A01 T01940149  RH  075%=      5-min Rain = 0
KCO2 150551Z 16007KT 20/15 A2996 RMK A01 T01950149  RH  075%=      5-min Rain = 0
KCO2 150552Z 16007KT 19/15 A2995 RMK A01 T01940149  RH  075%=      5-min Rain = 0
KCO2 150553Z 17008KT 20/15 A2995 RMK A01 T01950149  RH  075%=      5-min Rain = 0
KCO2 150554Z 16007KT 20/15 A2995 RMK A01 T01950148  RH  074%=      5-min Rain = 0
KCO2 150555Z 16006KT 20/15 A2995 RMK A01 T01950148  RH  074%=      5-min Rain = 0
KCO2 150556Z 17007KT 20/15 A2995 RMK A01 T01960149  RH  074%=      5-min Rain = 0
KCO2 150557Z 17007KT 20/15 A2995 RMK A01 T01950148  RH  074%=      5-min Rain = 0
KCO2 150558Z 17008KT 20/15 A2995 RMK A01 T01950147  RH  074%=      5-min Rain = 0
KCO2 150559Z 17009KT 20/15 A2995 RMK A01 T01950147  RH  074%=      5-min Rain = 0
KCO2 150600Z 17008KT 20/15 A2995 RMK A01 T01950146  RH  073%=      5-min Rain = 0
KCO2 150601Z 17007KT 20/15 A2995 RMK A01 T01950146  RH  073%=      5-min Rain = 0
KCO2 150602Z 17007KT 20/15 A2995 RMK A01 T01950146  RH  073%=      5-min Rain = 0
KCO2 150603Z 17007KT 20/15 A2995 RMK A01 T01950146  RH  073%=      5-min Rain = 0
KCO2 150604Z 16007KT 19/15 A2995 RMK A01 T01940146  RH  074%=      5-min Rain = 0
KCO2 150605Z 16006KT 19/15 A2995 RMK A01 T01940146  RH  074%=      5-min Rain = 0
KCO2 150606Z 16006KT 19/15 A2995 RMK A01 T01930146  RH  074%=      5-min Rain = 0
KCO2 150607Z 16006KT 19/15 A2995 RMK A01 T01930146  RH  074%=      5-min Rain = 0
KCO2 150608Z 16006KT 19/15 A2995 RMK A01 T01930146  RH  074%=      5-min Rain = 0
KCO2 150609Z 16005KT 19/15 A2995 RMK A01 T01920145  RH  074%=      5-min Rain = 0
KCO2 150610Z 16005KT 19/15 A2995 RMK A01 T01920145  RH  074%=      5-min Rain = 0
KCO2 150611Z 16005KT 19/15 A2995 RMK A01 T01920145  RH  074%=      5-min Rain = 0
KCO2 150612Z 16005KT 19/15 A2995 RMK A01 T01920145  RH  074%=      5-min Rain = 0
KCO2 150613Z 17005KT 19/15 A2995 RMK A01 T01910145  RH  074%=      5-min Rain = 0
KCO2 150614Z 16005KT 19/14 A2995 RMK A01 T01910144  RH  074%=      5-min Rain = 0
KCO2 150615Z 17006KT 19/14 A2995 RMK A01 T01910144  RH  074%=      5-min Rain = 0
KCO2 150616Z 17006KT 19/14 A2994 RMK A01 T01910144  RH  074%=      5-min Rain = 0
KCO2 150617Z 17007KT 19/14 A2994 RMK A01 T01910143  RH  074%=      5-min Rain = 0
KCO2 150618Z 17006KT 19/14 A2994 RMK A01 T01910143  RH  074%=      5-min Rain = 0
KCO2 150619Z 17006KT 19/14 A2994 RMK A01 T01910143  RH  074%=      5-min Rain = 0
KCO2 150620Z 18008KT 19/14 A2994 RMK A01 T01910143  RH  074%=      5-min Rain = 0
KCO2 150621Z 17007KT 19/14 A2994 RMK A01 T01910141  RH  073%=      5-min Rain = 0
KCO2 150622Z 18007KT 19/14 A2994 RMK A01 T01920141  RH  072%=      5-min Rain = 0
KCO2 150623Z 18007KT 19/14 A2994 RMK A01 T01930141  RH  072%=      5-min Rain = 0
KCO2 150624Z 18007KT 19/14 A2994 RMK A01 T01940141  RH  071%=      5-min Rain = 0
KCO2 150625Z 18007KT 19/14 A2994 RMK A01 T01940140  RH  071%=      5-min Rain = 0
KCO2 150626Z 18007KT 19/14 A2994 RMK A01 T01940140  RH  071%=      5-min Rain = 0
KCO2 150627Z 18007KT 19/14 A2994 RMK A01 T01940140  RH  071%=      5-min Rain = 0
KCO2 150628Z 18008KT 20/14 A2995 RMK A01 T01950139  RH  070%=      5-min Rain = 0
KCO2 150629Z 17007KT 20/14 A2995 RMK A01 T01960139  RH  070%=      5-min Rain = 0
KCO2 150630Z 18008KT 20/14 A2995 RMK A01 T01970139  RH  069%=      5-min Rain = 0
KCO2 150631Z 18009KT 20/14 A2995 RMK A01 T01980139  RH  068%=      5-min Rain = 0
KCO2 150632Z 18009KT 20/14 A2995 RMK A01 T02000138  RH  068%=      5-min Rain = 0
KCO2 150633Z 18009KT 20/14 A2994 RMK A01 T02010138  RH  067%=      5-min Rain = 0
KCO2 150634Z 18009KT 20/14 A2994 RMK A01 T02020138  RH  067%=      5-min Rain = 0
KCO2 150635Z 18009KT 20/14 A2994 RMK A01 T02020138  RH  066%=      5-min Rain = 0
KCO2 150636Z 18008KT 20/14 A2994 RMK A01 T02020138  RH  066%=      5-min Rain = 0
KCO2 150637Z 18007KT 20/14 A2994 RMK A01 T02020138  RH  067%=      5-min Rain = 0
KCO2 150638Z 18009KT 20/14 A2994 RMK A01 T02020138  RH  067%=      5-min Rain = 0
KCO2 150639Z 18008KT 20/14 A2994 RMK A01 T02020137  RH  066%=      5-min Rain = 0
KCO2 150640Z 18007KT 20/14 A2994 RMK A01 T02020137  RH  066%=      5-min Rain = 0
KCO2 150641Z 18007KT 20/14 A2994 RMK A01 T02020137  RH  066%=      5-min Rain = 0
KCO2 150642Z 18007KT 20/14 A2994 RMK A01 T02010137  RH  066%=      5-min Rain = 0
KCO2 150643Z 18007KT 20/14 A2994 RMK A01 T02010137  RH  067%=      5-min Rain = 0
KCO2 150644Z 18006KT 20/14 A2995 RMK A01 T02010137  RH  067%=      5-min Rain = 0
KCO2 150645Z 17006KT 20/14 A2995 RMK A01 T02000137  RH  067%=      5-min Rain = 0
KCO2 150646Z 17006KT 20/14 A2995 RMK A01 T02000137  RH  067%=      5-min Rain = 0
KCO2 150647Z 17006KT 20/14 A2995 RMK A01 T02000137  RH  067%=      5-min Rain = 0
KCO2 150648Z 17005KT 20/14 A2994 RMK A01 T01990137  RH  067%=      5-min Rain = 0
KCO2 150649Z 17005KT 20/14 A2994 RMK A01 T01990137  RH  067%=      5-min Rain = 0
KCO2 150650Z 17005KT 20/14 A2994 RMK A01 T01980137  RH  068%=      5-min Rain = 0
KCO2 150651Z 18006KT 20/14 A2994 RMK A01 T01980136  RH  068%=      5-min Rain = 0
KCO2 150652Z 18005KT 20/14 A2994 RMK A01 T01980136  RH  068%=      5-min Rain = 0
KCO2 150653Z 18005KT 20/14 A2994 RMK A01 T01980136  RH  068%=      5-min Rain = 0
KCO2 150654Z 18006KT 20/14 A2994 RMK A01 T01980136  RH  068%=      5-min Rain = 0
KCO2 150655Z 18006KT 20/14 A2994 RMK A01 T01980136  RH  068%=      5-min Rain = 0
KCO2 150656Z 18007KT 20/14 A2994 RMK A01 T01970136  RH  068%=      5-min Rain = 0
KCO2 150657Z 18007KT 20/14 A2994 RMK A01 T01970135  RH  067%=      5-min Rain = 0
KCO2 150658Z 18007KT 20/14 A2994 RMK A01 T01980135  RH  067%=      5-min Rain = 0
KCO2 150659Z 18007KT 20/14 A2994 RMK A01 T01980135  RH  067%=      5-min Rain = 0
KCO2 150700Z 18008KT 20/14 A2994 RMK A01 T01990136  RH  067%=      5-min Rain = 0
KCO2 150701Z 18007KT 20/14 A2994 RMK A01 T02000135  RH  066%=      5-min Rain = 0
KCO2 150702Z 18008KT 20/14 A2994 RMK A01 T02010136  RH  066%=      5-min Rain = 0
KCO2 150703Z 17008KT 20/14 A2994 RMK A01 T02020135  RH  066%=      5-min Rain = 0
KCO2 150704Z 18008KT 20/14 A2994 RMK A01 T02020135  RH  065%=      5-min Rain = 0
KCO2 150705Z 18010KT 20/14 A2994 RMK A01 T02030136  RH  065%=      5-min Rain = 0
KCO2 150706Z 19009KT 20/14 A2994 RMK A01 T02040136  RH  065%=      5-min Rain = 0
KCO2 150707Z 18009KT 21/14 A2994 RMK A01 T02050136  RH  065%=      5-min Rain = 0
KCO2 150708Z 18009KT 21/14 A2994 RMK A01 T02050135  RH  064%=      5-min Rain = 0
KCO2 150709Z 18009KT 21/14 A2994 RMK A01 T02050135  RH  064%=      5-min Rain = 0
KCO2 150710Z 19009KT 21/14 A2994 RMK A01 T02060136  RH  064%=      5-min Rain = 0
KCO2 150711Z 18009KT 21/14 A2994 RMK A01 T02060136  RH  064%=      5-min Rain = 0
KCO2 150712Z 18011KT 21/14 A2994 RMK A01 T02060136  RH  064%=      5-min Rain = 0
KCO2 150713Z 19010KT 21/14 A2994 RMK A01 T02060135  RH  064%=      5-min Rain = 0
KCO2 150714Z 19011KT 21/14 A2994 RMK A01 T02060136  RH  064%=      5-min Rain = 0
KCO2 150715Z 18011KT 21/14 A2994 RMK A01 T02070135  RH  064%=      5-min Rain = 0
KCO2 150716Z 18013KT 21/14 A2993 RMK A01 T02070135  RH  063%=      5-min Rain = 0
KCO2 150717Z 18012KT 21/14 A2993 RMK A01 T02070135  RH  063%=      5-min Rain = 0
KCO2 150718Z 18011KT 21/14 A2993 RMK A01 T02080136  RH  063%=      5-min Rain = 0
KCO2 150719Z 18010KT 21/14 A2993 RMK A01 T02080136  RH  064%=      5-min Rain = 0
KCO2 150720Z 18010KT 21/14 A2993 RMK A01 T02070136  RH  063%=      5-min Rain = 0
KCO2 150721Z 18010KT 21/14 A2993 RMK A01 T02070136  RH  063%=      5-min Rain = 0
KCO2 150722Z 18010KT 21/14 A2993 RMK A01 T02070136  RH  064%=      5-min Rain = 0
KCO2 150723Z 18012KT 21/14 A2993 RMK A01 T02070136  RH  064%=      5-min Rain = 0
KCO2 150724Z 18008KT 21/14 A2993 RMK A01 T02060136  RH  064%=      5-min Rain = 0
KCO2 150725Z 18009KT 21/14 A2993 RMK A01 T02060136  RH  064%=      5-min Rain = 0
KCO2 150726Z 18010KT 21/14 A2993 RMK A01 T02060137  RH  064%=      5-min Rain = 0
KCO2 150727Z 18010KT 21/14 A2993 RMK A01 T02050136  RH  064%=      5-min Rain = 0
KCO2 150728Z 18010KT 21/14 A2993 RMK A01 T02060136  RH  064%=      5-min Rain = 0
KCO2 150729Z 18013KT 21/14 A2993 RMK A01 T02050136  RH  064%=      5-min Rain = 0
KCO2 150730Z 18011KT 21/14 A2993 RMK A01 T02060136  RH  064%=      5-min Rain = 0
KCO2 150731Z 18011KT 21/14 A2993 RMK A01 T02060135  RH  064%=      5-min Rain = 0
KCO2 150732Z 18010KT 21/14 A2993 RMK A01 T02070136  RH  064%=      5-min Rain = 0
KCO2 150733Z 18012KT 21/14 A2993 RMK A01 T02070136  RH  064%=      5-min Rain = 0
KCO2 150734Z 17012KT 21/14 A2993 RMK A01 T02070136  RH  064%=      5-min Rain = 0
KCO2 150735Z 17013KT 21/14 A2993 RMK A01 T02070136  RH  064%=      5-min Rain = 0
KCO2 150736Z 17011KT 21/14 A2993 RMK A01 T02070135  RH  063%=      5-min Rain = 0
KCO2 150737Z 17010KT 21/14 A2993 RMK A01 T02070135  RH  063%=      5-min Rain = 0
KCO2 150738Z 17012KT 21/14 A2993 RMK A01 T02070135  RH  063%=      5-min Rain = 0
KCO2 150739Z 17010KT 21/14 A2993 RMK A01 T02070135  RH  063%=      5-min Rain = 0
KCO2 150740Z 17010KT 21/14 A2993 RMK A01 T02080135  RH  063%=      5-min Rain = 0
KCO2 150741Z 17010KT 21/14 A2993 RMK A01 T02070135  RH  063%=      5-min Rain = 0
KCO2 150742Z 18010KT 21/14 A2993 RMK A01 T02070135  RH  063%=      5-min Rain = 0
KCO2 150743Z 18011KT 21/14 A2993 RMK A01 T02070135  RH  063%=      5-min Rain = 0
KCO2 150744Z 17009KT 21/14 A2993 RMK A01 T02070135  RH  063%=      5-min Rain = 0
KCO2 150745Z 17009KT 21/14 A2993 RMK A01 T02060135  RH  064%=      5-min Rain = 0
KCO2 150746Z 18009KT 21/14 A2993 RMK A01 T02060135  RH  064%=      5-min Rain = 0
KCO2 150747Z 18009KT 21/14 A2993 RMK A01 T02060135  RH  064%=      5-min Rain = 0
KCO2 150748Z 18010KT 21/14 A2993 RMK A01 T02060135  RH  064%=      5-min Rain = 0
KCO2 150749Z 18011KT 21/13 A2993 RMK A01 T02060134  RH  063%=      5-min Rain = 0
KCO2 150750Z 18008KT 21/13 A2993 RMK A01 T02060134  RH  063%=      5-min Rain = 0
KCO2 150751Z 18007KT 21/14 A2993 RMK A01 T02060135  RH  064%=      5-min Rain = 0
KCO2 150752Z 18007KT 21/14 A2993 RMK A01 T02050135  RH  064%=      5-min Rain = 0
KCO2 150753Z 17007KT 20/14 A2993 RMK A01 T02030135  RH  065%=      5-min Rain = 0
KCO2 150754Z 18006KT 20/14 A2993 RMK A01 T02030135  RH  065%=      5-min Rain = 0
KCO2 150755Z 18006KT 20/14 A2993 RMK A01 T02020135  RH  065%=      5-min Rain = 0
KCO2 150756Z 18007KT 20/14 A2993 RMK A01 T02010135  RH  066%=      5-min Rain = 0
KCO2 150757Z 18006KT 20/14 A2993 RMK A01 T02000135  RH  066%=      5-min Rain = 0
KCO2 150758Z 18007KT 20/14 A2993 RMK A01 T01990135  RH  066%=      5-min Rain = 0
KCO2 150759Z 18006KT 20/14 A2993 RMK A01 T01990135  RH  067%=      5-min Rain = 0
KCO2 150800Z 18006KT 20/14 A2993 RMK A01 T01990135  RH  067%=      5-min Rain = 0
KCO2 150801Z 18005KT 20/14 A2992 RMK A01 T01980135  RH  067%=      5-min Rain = 0
KCO2 150802Z 18005KT 20/14 A2992 RMK A01 T01980135  RH  067%=      5-min Rain = 0
KCO2 150803Z 19006KT 20/14 A2992 RMK A01 T01970135  RH  067%=      5-min Rain = 0
KCO2 150804Z 18005KT 20/14 A2992 RMK A01 T01960135  RH  068%=      5-min Rain = 0
KCO2 150805Z 18005KT 20/14 A2992 RMK A01 T01960135  RH  068%=      5-min Rain = 0
KCO2 150806Z 18006KT 20/14 A2992 RMK A01 T01950135  RH  068%=      5-min Rain = 0
KCO2 150807Z 18005KT 20/14 A2992 RMK A01 T01950136  RH  068%=      5-min Rain = 0
KCO2 150808Z 17005KT 20/14 A2992 RMK A01 T01950136  RH  069%=      5-min Rain = 0
KCO2 150809Z 17005KT 19/14 A2992 RMK A01 T01940136  RH  069%=      5-min Rain = 0
KCO2 150810Z 18005KT 19/14 A2992 RMK A01 T01930136  RH  069%=      5-min Rain = 0
KCO2 150811Z 18005KT 19/14 A2992 RMK A01 T01930135  RH  069%=      5-min Rain = 0
KCO2 150812Z 18005KT 19/14 A2992 RMK A01 T01920136  RH  070%=      5-min Rain = 0
KCO2 150813Z 18005KT 19/14 A2992 RMK A01 T01920136  RH  070%=      5-min Rain = 0
KCO2 150814Z 17004KT 19/14 A2992 RMK A01 T01910136  RH  070%=      5-min Rain = 0
KCO2 150815Z 17005KT 19/14 A2993 RMK A01 T01900136  RH  071%=      5-min Rain = 0
KCO2 150816Z 17004KT 19/14 A2993 RMK A01 T01900136  RH  071%=      5-min Rain = 0
KCO2 150817Z 17004KT 19/14 A2993 RMK A01 T01890136  RH  071%=      5-min Rain = 0
KCO2 150818Z 18005KT 19/14 A2993 RMK A01 T01880136  RH  071%=      5-min Rain = 0
KCO2 150819Z 18004KT 19/14 A2993 RMK A01 T01880135  RH  072%=      5-min Rain = 0
KCO2 150820Z 18004KT 19/14 A2993 RMK A01 T01870136  RH  072%=      5-min Rain = 0
KCO2 150821Z 18004KT 19/14 A2993 RMK A01 T01860135  RH  072%=      5-min Rain = 0
KCO2 150822Z 18005KT 19/14 A2992 RMK A01 T01860135  RH  072%=      5-min Rain = 0
KCO2 150823Z 18004KT 19/14 A2992 RMK A01 T01850136  RH  073%=      5-min Rain = 0
KCO2 150824Z 18005KT 18/14 A2992 RMK A01 T01840136  RH  073%=      5-min Rain = 0
KCO2 150825Z 18005KT 18/14 A2992 RMK A01 T01830135  RH  074%=      5-min Rain = 0
KCO2 150826Z 18005KT 18/14 A2992 RMK A01 T01830135  RH  074%=      5-min Rain = 0
KCO2 150827Z 18005KT 18/14 A2992 RMK A01 T01820135  RH  074%=      5-min Rain = 0
KCO2 150828Z 19005KT 18/14 A2992 RMK A01 T01820135  RH  074%=      5-min Rain = 0
KCO2 150829Z 19005KT 18/14 A2992 RMK A01 T01810135  RH  075%=      5-min Rain = 0
KCO2 150830Z 19004KT 18/14 A2992 RMK A01 T01810135  RH  075%=      5-min Rain = 0
KCO2 150831Z 20004KT 18/14 A2992 RMK A01 T01800135  RH  075%=      5-min Rain = 0
KCO2 150832Z 20004KT 18/14 A2992 RMK A01 T01800135  RH  075%=      5-min Rain = 0
KCO2 150833Z 21003KT 18/14 A2992 RMK A01 T01800135  RH  075%=      5-min Rain = 0
KCO2 150834Z 20003KT 18/14 A2992 RMK A01 T01800135  RH  075%=      5-min Rain = 0
KCO2 150835Z 21002KT 18/14 A2992 RMK A01 T01800135  RH  075%=      5-min Rain = 0
KCO2 150836Z 21002KT 18/14 A2992 RMK A01 T01800135  RH  075%=      5-min Rain = 0
KCO2 150837Z 21002KT 18/14 A2992 RMK A01 T01790135  RH  075%=      5-min Rain = 0
KCO2 150838Z 20002KT 18/14 A2992 RMK A01 T01800135  RH  075%=      5-min Rain = 0
KCO2 150839Z 20001KT 18/14 A2992 RMK A01 T01790135  RH  075%=      5-min Rain = 0
KCO2 150840Z 20002KT 18/14 A2992 RMK A01 T01790135  RH  075%=      5-min Rain = 0
KCO2 150841Z 21001KT 18/14 A2992 RMK A01 T01790135  RH  075%=      5-min Rain = 0
KCO2 150842Z 22001KT 18/14 A2992 RMK A01 T01800136  RH  075%=      5-min Rain = 0
KCO2 150843Z 21001KT 18/14 A2992 RMK A01 T01800136  RH  075%=      5-min Rain = 0
KCO2 150844Z 21001KT 18/14 A2992 RMK A01 T01800135  RH  075%=      5-min Rain = 0
KCO2 150845Z 20001KT 18/14 A2992 RMK A01 T01800135  RH  075%=      5-min Rain = 0
KCO2 150846Z 20001KT 18/14 A2992 RMK A01 T01810135  RH  075%=      5-min Rain = 0
KCO2 150847Z 20001KT 18/14 A2992 RMK A01 T01810136  RH  075%=      5-min Rain = 0
KCO2 150848Z 21001KT 18/14 A2992 RMK A01 T01810136  RH  075%=      5-min Rain = 0
KCO2 150849Z 22001KT 18/14 A2992 RMK A01 T01810136  RH  075%=      5-min Rain = 0
KCO2 150850Z 22001KT 18/14 A2992 RMK A01 T01800135  RH  075%=      5-min Rain = 0
KCO2 150851Z 23001KT 18/14 A2992 RMK A01 T01800135  RH  075%=      5-min Rain = 0
KCO2 150852Z 24001KT 18/14 A2992 RMK A01 T01800135  RH  075%=      5-min Rain = 0
KCO2 150853Z 25001KT 18/14 A2992 RMK A01 T01800135  RH  075%=      5-min Rain = 0
KCO2 150854Z 25002KT 18/14 A2992 RMK A01 T01790135  RH  075%=      5-min Rain = 0
KCO2 150855Z 25001KT 18/13 A2992 RMK A01 T01790134  RH  075%=      5-min Rain = 0
KCO2 150856Z 26001KT 18/13 A2992 RMK A01 T01790134  RH  075%=      5-min Rain = 0
KCO2 150857Z 26002KT 18/13 A2992 RMK A01 T01790134  RH  075%=      5-min Rain = 0
KCO2 150858Z 26001KT 18/13 A2992 RMK A01 T01780134  RH  075%=      5-min Rain = 0
KCO2 150859Z 25001KT 18/13 A2992 RMK A01 T01790134  RH  075%=      5-min Rain = 0
KCO2 150900Z 25001KT 18/13 A2992 RMK A01 T01790134  RH  075%=      5-min Rain = 0
KCO2 150901Z 25001KT 18/13 A2992 RMK A01 T01790134  RH  075%=      5-min Rain = 0
KCO2 150902Z 25001KT 18/14 A2992 RMK A01 T01790135  RH  075%=      5-min Rain = 0
KCO2 150903Z 25001KT 18/14 A2992 RMK A01 T01790135  RH  075%=      5-min Rain = 0
KCO2 150904Z 25001KT 18/14 A2992 RMK A01 T01790135  RH  075%=      5-min Rain = 0
KCO2 150905Z 26001KT 18/13 A2992 RMK A01 T01790134  RH  075%=      5-min Rain = 0
KCO2 150906Z 25001KT 18/13 A2992 RMK A01 T01800134  RH  075%=      5-min Rain = 0
KCO2 150907Z 24002KT 18/13 A2992 RMK A01 T01800134  RH  075%=      5-min Rain = 0
KCO2 150908Z 23002KT 18/13 A2992 RMK A01 T01800134  RH  075%=      5-min Rain = 0
KCO2 150909Z 23002KT 18/13 A2992 RMK A01 T01800134  RH  074%=      5-min Rain = 0
KCO2 150910Z 22002KT 18/13 A2992 RMK A01 T01800134  RH  074%=      5-min Rain = 0
KCO2 150911Z 21002KT 18/13 A2992 RMK A01 T01800134  RH  074%=      5-min Rain = 0
KCO2 150912Z 20002KT 18/13 A2992 RMK A01 T01800134  RH  075%=      5-min Rain = 0
KCO2 150913Z 20002KT 18/13 A2992 RMK A01 T01800134  RH  075%=      5-min Rain = 0
KCO2 150914Z 19002KT 18/13 A2992 RMK A01 T01800134  RH  075%=      5-min Rain = 0
KCO2 150915Z 20002KT 18/13 A2992 RMK A01 T01800134  RH  075%=      5-min Rain = 0
KCO2 150916Z 20003KT 18/13 A2992 RMK A01 T01800134  RH  075%=      5-min Rain = 0
KCO2 150917Z 21003KT 18/14 A2992 RMK A01 T01800135  RH  075%=      5-min Rain = 0
KCO2 150918Z 22002KT 18/13 A2991 RMK A01 T01790134  RH  075%=      5-min Rain = 0
KCO2 150919Z 22003KT 18/13 A2991 RMK A01 T01790134  RH  075%=      5-min Rain = 0
KCO2 150920Z 21003KT 18/14 A2991 RMK A01 T01800135  RH  075%=      5-min Rain = 0
KCO2 150921Z 20003KT 18/14 A2991 RMK A01 T01800135  RH  074%=      5-min Rain = 0
KCO2 150922Z 20003KT 18/13 A2991 RMK A01 T01810134  RH  074%=      5-min Rain = 0
KCO2 150923Z 19002KT 18/14 A2991 RMK A01 T01810135  RH  074%=      5-min Rain = 0
KCO2 150924Z 19003KT 18/13 A2991 RMK A01 T01810134  RH  074%=      5-min Rain = 0
KCO2 150925Z 19003KT 18/14 A2991 RMK A01 T01810135  RH  074%=      5-min Rain = 0
KCO2 150926Z 19003KT 18/13 A2991 RMK A01 T01800134  RH  074%=      5-min Rain = 0
KCO2 150927Z 19003KT 18/13 A2991 RMK A01 T01800134  RH  075%=      5-min Rain = 0
KCO2 150928Z 19002KT 18/14 A2991 RMK A01 T01800135  RH  075%=      5-min Rain = 0
KCO2 150929Z 19002KT 18/13 A2991 RMK A01 T01800134  RH  075%=      5-min Rain = 0
KCO2 150930Z 19002KT 18/13 A2991 RMK A01 T01800134  RH  075%=      5-min Rain = 0
KCO2 150931Z 19002KT 18/14 A2991 RMK A01 T01800135  RH  075%=      5-min Rain = 0
KCO2 150932Z 19002KT 18/13 A2991 RMK A01 T01790134  RH  075%=      5-min Rain = 0
KCO2 150933Z 19002KT 18/13 A2991 RMK A01 T01800134  RH  075%=      5-min Rain = 0
KCO2 150934Z 19002KT 18/14 A2991 RMK A01 T01800135  RH  075%=      5-min Rain = 0
KCO2 150935Z 19002KT 18/13 A2991 RMK A01 T01800134  RH  074%=      5-min Rain = 0
KCO2 150936Z 18002KT 18/13 A2991 RMK A01 T01800134  RH  074%=      5-min Rain = 0
KCO2 150937Z 18002KT 18/14 A2991 RMK A01 T01810135  RH  074%=      5-min Rain = 0
KCO2 150938Z 18002KT 18/14 A2991 RMK A01 T01810135  RH  074%=      5-min Rain = 0
KCO2 150939Z 18002KT 18/13 A2991 RMK A01 T01810134  RH  074%=      5-min Rain = 0
KCO2 150940Z 19002KT 18/13 A2991 RMK A01 T01820134  RH  074%=      5-min Rain = 0
KCO2 150941Z 19002KT 18/13 A2991 RMK A01 T01820134  RH  074%=      5-min Rain = 0
KCO2 150942Z 20002KT 18/14 A2991 RMK A01 T01820135  RH  074%=      5-min Rain = 0
KCO2 150943Z 20002KT 18/14 A2991 RMK A01 T01820135  RH  074%=      5-min Rain = 0
KCO2 150944Z 21002KT 18/14 A2991 RMK A01 T01820135  RH  074%=      5-min Rain = 0
KCO2 150945Z 21003KT 18/14 A2991 RMK A01 T01820135  RH  074%=      5-min Rain = 0
KCO2 150946Z 22003KT 18/14 A2991 RMK A01 T01830135  RH  074%=      5-min Rain = 0
KCO2 150947Z 23002KT 18/14 A2991 RMK A01 T01840136  RH  073%=      5-min Rain = 0
KCO2 150948Z 24002KT 19/14 A2991 RMK A01 T01850135  RH  073%=      5-min Rain = 0
KCO2 150949Z 25002KT 19/14 A2992 RMK A01 T01850135  RH  073%=      5-min Rain = 0
KCO2 150950Z 26002KT 18/14 A2992 RMK A01 T01840135  RH  073%=      5-min Rain = 0
KCO2 150951Z 27002KT 18/13 A2992 RMK A01 T01820134  RH  073%=      5-min Rain = 0
KCO2 150952Z 28002KT 18/13 A2992 RMK A01 T01810134  RH  074%=      5-min Rain = 0
KCO2 150953Z 29003KT 18/13 A2992 RMK A01 T01800134  RH  075%=      5-min Rain = 0
KCO2 150954Z 29003KT 18/13 A2992 RMK A01 T01790134  RH  075%=      5-min Rain = 0
KCO2 150955Z 30003KT 18/13 A2992 RMK A01 T01770134  RH  076%=      5-min Rain = 0
KCO2 150956Z 31003KT 18/13 A2992 RMK A01 T01760134  RH  076%=      5-min Rain = 0
KCO2 150957Z 31003KT 17/13 A2992 RMK A01 T01740133  RH  077%=      5-min Rain = 0
KCO2 150958Z 32003KT 17/13 A2992 RMK A01 T01720133  RH  078%=      5-min Rain = 0
KCO2 150959Z 33003KT 17/13 A2992 RMK A01 T01710133  RH  078%=      5-min Rain = 0
KCO2 151000Z 33004KT 17/13 A2992 RMK A01 T01700133  RH  079%=      5-min Rain = 0
KCO2 151001Z 34004KT 17/13 A2992 RMK A01 T01690134  RH  080%=      5-min Rain = 0
KCO2 151002Z 34004KT 17/13 A2992 RMK A01 T01680133  RH  080%=      5-min Rain = 0
KCO2 151003Z 35005KT 17/13 A2992 RMK A01 T01670134  RH  081%=      5-min Rain = 0
KCO2 151004Z 35005KT 17/13 A2992 RMK A01 T01660134  RH  082%=      5-min Rain = 0
KCO2 151005Z 00005KT 17/14 A2992 RMK A01 T01660136  RH  082%=      5-min Rain = 0
KCO2 151006Z 01005KT 17/14 A2993 RMK A01 T01660137  RH  083%=      5-min Rain = 0
KCO2 151007Z 02005KT 17/14 A2993 RMK A01 T01670136  RH  082%=      5-min Rain = 0
KCO2 151008Z 02005KT 17/14 A2993 RMK A01 T01670136  RH  082%=      5-min Rain = 0
KCO2 151009Z 03005KT 17/14 A2993 RMK A01 T01660137  RH  083%=      5-min Rain = 0
KCO2 151010Z 04005KT 17/14 A2993 RMK A01 T01650137  RH  084%=      5-min Rain = 0
KCO2 151011Z 05005KT 17/14 A2993 RMK A01 T01650138  RH  084%=      5-min Rain = 0
KCO2 151012Z 05005KT 17/14 A2993 RMK A01 T01650137  RH  084%=      5-min Rain = 0
KCO2 151013Z 06006KT 16/14 A2993 RMK A01 T01640137  RH  084%=      5-min Rain = 0
KCO2 151014Z 06006KT 16/14 A2993 RMK A01 T01630136  RH  084%=      5-min Rain = 0
KCO2 151015Z 05005KT 16/14 A2993 RMK A01 T01620136  RH  084%=      5-min Rain = 0
KCO2 151016Z 05005KT 16/14 A2993 RMK A01 T01620136  RH  085%=      5-min Rain = 0
KCO2 151017Z 05004KT 16/14 A2993 RMK A01 T01620136  RH  085%=      5-min Rain = 0
KCO2 151018Z 05003KT 16/14 A2993 RMK A01 T01620136  RH  085%=      5-min Rain = 0
KCO2 151019Z 06002KT 16/14 A2992 RMK A01 T01620136  RH  085%=      5-min Rain = 0
KCO2 151020Z 06002KT 16/14 A2992 RMK A01 T01620136  RH  084%=      5-min Rain = 0
KCO2 151021Z 06001KT 16/14 A2992 RMK A01 T01630136  RH  084%=      5-min Rain = 0
KCO2 151022Z 00000KT 16/14 A2992 RMK A01 T01630136  RH  084%=      5-min Rain = 0
KCO2 151023Z 00000KT 16/14 A2992 RMK A01 T01630136  RH  084%=      5-min Rain = 0
KCO2 151024Z 00000KT 16/14 A2992 RMK A01 T01630136  RH  084%=      5-min Rain = 0
KCO2 151025Z 19001KT 16/14 A2992 RMK A01 T01610135  RH  084%=      5-min Rain = 0
KCO2 151026Z 19001KT 16/14 A2992 RMK A01 T01600135  RH  085%=      5-min Rain = 0
KCO2 151027Z 19001KT 16/14 A2992 RMK A01 T01580135  RH  086%=      5-min Rain = 0
KCO2 151028Z 19000KT 16/13 A2992 RMK A01 T01570134  RH  087%=      5-min Rain = 0
KCO2 151029Z 17000KT 16/14 A2992 RMK A01 T01560135  RH  087%=      5-min Rain = 0
KCO2 151030Z 16000KT 16/14 A2992 RMK A01 T01560135  RH  088%=      5-min Rain = 0
KCO2 151031Z 12001KT 16/14 A2992 RMK A01 T01550135  RH  087%=      5-min Rain = 0
KCO2 151032Z 11001KT 16/14 A2992 RMK A01 T01560135  RH  088%=      5-min Rain = 0
KCO2 151033Z 11002KT 16/14 A2992 RMK A01 T01550136  RH  088%=      5-min Rain = 0
KCO2 151034Z 10003KT 16/14 A2993 RMK A01 T01560136  RH  088%=      5-min Rain = 0
KCO2 151035Z 09003KT 16/14 A2993 RMK A01 T01580137  RH  087%=      5-min Rain = 0
KCO2 151036Z 08004KT 16/14 A2993 RMK A01 T01600137  RH  086%=      5-min Rain = 0
KCO2 151037Z 08004KT 16/14 A2993 RMK A01 T01630137  RH  085%=      5-min Rain = 0
KCO2 151038Z 08004KT 16/14 A2993 RMK A01 T01640137  RH  084%=      5-min Rain = 0
KCO2 151039Z 08006KT 16/14 A2993 RMK A01 T01640136  RH  084%=      5-min Rain = 0
KCO2 151040Z 08006KT 16/14 A2993 RMK A01 T01630136  RH  084%=      5-min Rain = 0
KCO2 151041Z 08006KT 16/14 A2993 RMK A01 T01620135  RH  084%=      5-min Rain = 0
KCO2 151042Z 08006KT 16/13 A2993 RMK A01 T01600134  RH  085%=      5-min Rain = 0
KCO2 151043Z 08006KT 16/13 A2993 RMK A01 T01580134  RH  086%=      5-min Rain = 0
KCO2 151044Z 08006KT 16/13 A2993 RMK A01 T01570134  RH  086%=      5-min Rain = 0
KCO2 151045Z 08006KT 16/14 A2993 RMK A01 T01570135  RH  087%=      5-min Rain = 0
KCO2 151046Z 08006KT 16/14 A2993 RMK A01 T01560136  RH  087%=      5-min Rain = 0
KCO2 151047Z 08005KT 16/14 A2993 RMK A01 T01560136  RH  088%=      5-min Rain = 0
KCO2 151048Z 08005KT 16/14 A2993 RMK A01 T01560137  RH  088%=      5-min Rain = 0
KCO2 151049Z 08005KT 16/14 A2993 RMK A01 T01550137  RH  089%=      5-min Rain = 0
KCO2 151050Z 08005KT 16/14 A2993 RMK A01 T01560137  RH  089%=      5-min Rain = 0
KCO2 151051Z 09004KT 16/14 A2993 RMK A01 T01560138  RH  089%=      5-min Rain = 0
KCO2 151052Z 10004KT 16/14 A2993 RMK A01 T01550138  RH  089%=      5-min Rain = 0
KCO2 151053Z 10004KT 16/14 A2992 RMK A01 T01550138  RH  089%=      5-min Rain = 0
KCO2 151054Z 10004KT 16/14 A2992 RMK A01 T01560138  RH  089%=      5-min Rain = 0
KCO2 151055Z 11004KT 16/14 A2992 RMK A01 T01560137  RH  089%=      5-min Rain = 0
KCO2 151056Z 12004KT 16/14 A2992 RMK A01 T01560137  RH  089%=      5-min Rain = 0
KCO2 151057Z 13003KT 16/14 A2992 RMK A01 T01560137  RH  089%=      5-min Rain = 0
KCO2 151058Z 14003KT 16/14 A2992 RMK A01 T01560138  RH  089%=      5-min Rain = 0
KCO2 151059Z 15003KT 16/14 A2992 RMK A01 T01560138  RH  089%=      5-min Rain = 0
KCO2 151100Z 15003KT 16/14 A2992 RMK A01 T01550138  RH  089%=      5-min Rain = 0
KCO2 151101Z 16003KT 16/14 A2992 RMK A01 T01560138  RH  089%=      5-min Rain = 0
KCO2 151102Z 16003KT 16/14 A2992 RMK A01 T01560139  RH  089%=      5-min Rain = 0
KCO2 151103Z 17003KT 16/14 A2992 RMK A01 T01570140  RH  089%=      5-min Rain = 0
KCO2 151104Z 17003KT 16/14 A2992 RMK A01 T01580140  RH  089%=      5-min Rain = 0
KCO2 151105Z 17003KT 16/14 A2992 RMK A01 T01590140  RH  088%=      5-min Rain = 0
KCO2 151106Z 15002KT 16/14 A2992 RMK A01 T01610140  RH  087%=      5-min Rain = 0
KCO2 151107Z 15002KT 16/14 A2993 RMK A01 T01620139  RH  086%=      5-min Rain = 0
KCO2 151108Z 14003KT 16/14 A2993 RMK A01 T01640140  RH  085%=      5-min Rain = 0
KCO2 151109Z 12003KT 17/14 A2993 RMK A01 T01650139  RH  085%=      5-min Rain = 0
KCO2 151110Z 11004KT 17/14 A2993 RMK A01 T01660139  RH  084%=      5-min Rain = 0
KCO2 151111Z 09004KT 17/14 A2993 RMK A01 T01660139  RH  084%=      5-min Rain = 0
KCO2 151112Z 09005KT 17/14 A2993 RMK A01 T01660139  RH  084%=      5-min Rain = 0
KCO2 151113Z 09006KT 16/14 A2993 RMK A01 T01640139  RH  085%=      5-min Rain = 0
KCO2 151114Z 09006KT 16/14 A2994 RMK A01 T01630139  RH  086%=      5-min Rain = 0
KCO2 151115Z 09007KT 16/14 A2994 RMK A01 T01610139  RH  087%=      5-min Rain = 0
KCO2 151116Z 09007KT 16/14 A2994 RMK A01 T01600139  RH  087%=      5-min Rain = 0
KCO2 151117Z 09007KT 16/14 A2994 RMK A01 T01590138  RH  087%=      5-min Rain = 0
KCO2 151118Z 10007KT 16/14 A2994 RMK A01 T01580137  RH  087%=      5-min Rain = 0
KCO2 151119Z 10006KT 16/14 A2994 RMK A01 T01570137  RH  087%=      5-min Rain = 0
KCO2 151120Z 11006KT 16/14 A2994 RMK A01 T01570137  RH  088%=      5-min Rain = 0
KCO2 151121Z 12005KT 16/14 A2993 RMK A01 T01570137  RH  088%=      5-min Rain = 0
KCO2 151122Z 12005KT 16/14 A2993 RMK A01 T01570137  RH  088%=      5-min Rain = 0
KCO2 151123Z 13005KT 16/14 A2993 RMK A01 T01570138  RH  088%=      5-min Rain = 0
KCO2 151124Z 13004KT 16/14 A2993 RMK A01 T01570138  RH  088%=      5-min Rain = 0
KCO2 151125Z 14004KT 16/14 A2993 RMK A01 T01560137  RH  088%=      5-min Rain = 0
KCO2 151126Z 15005KT 16/14 A2993 RMK A01 T01570138  RH  088%=      5-min Rain = 0
KCO2 151127Z 16005KT 16/14 A2993 RMK A01 T01560137  RH  089%=      5-min Rain = 0
KCO2 151128Z 16005KT 16/14 A2993 RMK A01 T01550137  RH  089%=      5-min Rain = 0
KCO2 151129Z 16005KT 16/14 A2993 RMK A01 T01550137  RH  089%=      5-min Rain = 0
KCO2 151130Z 17005KT 16/14 A2993 RMK A01 T01550137  RH  089%=      5-min Rain = 0
KCO2 151131Z 17005KT 16/14 A2993 RMK A01 T01550138  RH  090%=      5-min Rain = 0
KCO2 151132Z 17005KT 16/14 A2993 RMK A01 T01550138  RH  090%=      5-min Rain = 0
KCO2 151133Z 17006KT 16/14 A2993 RMK A01 T01550138  RH  090%=      5-min Rain = 0
KCO2 151134Z 17006KT 16/14 A2993 RMK A01 T01560138  RH  089%=      5-min Rain = 0
KCO2 151135Z 17006KT 16/14 A2993 RMK A01 T01570138  RH  088%=      5-min Rain = 0
KCO2 151136Z 17006KT 16/14 A2993 RMK A01 T01570137  RH  088%=      5-min Rain = 0
KCO2 151137Z 17006KT 16/14 A2993 RMK A01 T01580137  RH  088%=      5-min Rain = 0
KCO2 151138Z 17006KT 16/14 A2993 RMK A01 T01590138  RH  087%=      5-min Rain = 0
KCO2 151139Z 17006KT 16/14 A2993 RMK A01 T01600138  RH  087%=      5-min Rain = 0
KCO2 151140Z 17006KT 16/14 A2993 RMK A01 T01600138  RH  087%=      5-min Rain = 0
KCO2 151141Z 17006KT 16/14 A2993 RMK A01 T01610139  RH  087%=      5-min Rain = 0
KCO2 151142Z 16006KT 16/14 A2993 RMK A01 T01620139  RH  087%=      5-min Rain = 0
KCO2 151143Z 16006KT 16/14 A2993 RMK A01 T01620140  RH  087%=      5-min Rain = 0
KCO2 151144Z 16005KT 16/14 A2993 RMK A01 T01620140  RH  087%=      5-min Rain = 0
KCO2 151145Z 16005KT 16/14 A2994 RMK A01 T01620140  RH  087%=      5-min Rain = 0
KCO2 151146Z 16005KT 16/14 A2994 RMK A01 T01620140  RH  087%=      5-min Rain = 0
KCO2 151147Z 17005KT 16/14 A2994 RMK A01 T01620141  RH  087%=      5-min Rain = 0
KCO2 151148Z 16005KT 16/14 A2994 RMK A01 T01620141  RH  087%=      5-min Rain = 0
KCO2 151149Z 16005KT 16/14 A2994 RMK A01 T01620141  RH  087%=      5-min Rain = 0
KCO2 151150Z 16005KT 16/14 A2994 RMK A01 T01620141  RH  087%=      5-min Rain = 0
KCO2 151151Z 16006KT 16/14 A2994 RMK A01 T01610141  RH  088%=      5-min Rain = 0
KCO2 151152Z 17006KT 16/14 A2994 RMK A01 T01610141  RH  088%=      5-min Rain = 0
KCO2 151153Z 17006KT 16/14 A2994 RMK A01 T01610141  RH  088%=      5-min Rain = 0
KCO2 151154Z 17006KT 16/14 A2994 RMK A01 T01610141  RH  088%=      5-min Rain = 0
KCO2 151155Z 17006KT 16/14 A2994 RMK A01 T01610141  RH  088%=      5-min Rain = 0
KCO2 151156Z 17006KT 16/14 A2994 RMK A01 T01610141  RH  088%=      5-min Rain = 0
KCO2 151157Z 17007KT 16/14 A2994 RMK A01 T01620141  RH  088%=      5-min Rain = 0
KCO2 151158Z 17006KT 16/14 A2994 RMK A01 T01620142  RH  088%=      5-min Rain = 0
KCO2 151159Z 18006KT 16/14 A2994 RMK A01 T01630142  RH  087%=      5-min Rain = 0
KCO2 151200Z 18006KT 16/14 A2994 RMK A01 T01640143  RH  087%=      5-min Rain = 0
KCO2 151201Z 18006KT 17/14 A2994 RMK A01 T01660143  RH  087%=      5-min Rain = 0
KCO2 151202Z 18006KT 17/14 A2994 RMK A01 T01670144  RH  086%=      5-min Rain = 0
KCO2 151203Z 18006KT 17/14 A2994 RMK A01 T01680144  RH  086%=      5-min Rain = 0
KCO2 151204Z 18005KT 17/14 A2995 RMK A01 T01690144  RH  085%=      5-min Rain = 0
KCO2 151205Z 18005KT 17/15 A2995 RMK A01 T01700145  RH  085%=      5-min Rain = 0
KCO2 151206Z 18005KT 17/15 A2995 RMK A01 T01710145  RH  085%=      5-min Rain = 0
KCO2 151207Z 18005KT 17/15 A2995 RMK A01 T01710145  RH  084%=      5-min Rain = 0
KCO2 151208Z 18005KT 17/15 A2995 RMK A01 T01720145  RH  084%=      5-min Rain = 0
KCO2 151209Z 18005KT 17/15 A2995 RMK A01 T01720145  RH  084%=      5-min Rain = 0
KCO2 151210Z 18005KT 17/15 A2995 RMK A01 T01720145  RH  084%=      5-min Rain = 0
KCO2 151211Z 19005KT 17/15 A2995 RMK A01 T01720145  RH  084%=      5-min Rain = 0
KCO2 151212Z 19005KT 17/15 A2995 RMK A01 T01730145  RH  084%=      5-min Rain = 0
KCO2 151213Z 19005KT 17/15 A2995 RMK A01 T01730145  RH  084%=      5-min Rain = 0
KCO2 151214Z 19005KT 17/15 A2995 RMK A01 T01730146  RH  084%=      5-min Rain = 0
KCO2 151215Z 19005KT 17/15 A2995 RMK A01 T01740146  RH  084%=      5-min Rain = 0
KCO2 151216Z 20005KT 17/15 A2995 RMK A01 T01740146  RH  083%=      5-min Rain = 0
KCO2 151217Z 20005KT 18/15 A2995 RMK A01 T01750147  RH  083%=      5-min Rain = 0
KCO2 151218Z 20005KT 18/15 A2995 RMK A01 T01760147  RH  083%=      5-min Rain = 0
KCO2 151219Z 20006KT 18/15 A2995 RMK A01 T01770147  RH  083%=      5-min Rain = 0
KCO2 151220Z 20006KT 18/15 A2995 RMK A01 T01780147  RH  082%=      5-min Rain = 0
KCO2 151221Z 20005KT 18/15 A2995 RMK A01 T01790148  RH  082%=      5-min Rain = 0
KCO2 151222Z 20005KT 18/15 A2995 RMK A01 T01810148  RH  081%=      5-min Rain = 0
KCO2 151223Z 20005KT 18/15 A2995 RMK A01 T01810148  RH  081%=      5-min Rain = 0
KCO2 151224Z 20005KT 18/15 A2995 RMK A01 T01820148  RH  081%=      5-min Rain = 0
KCO2 151225Z 20005KT 18/15 A2995 RMK A01 T01830149  RH  080%=      5-min Rain = 0
KCO2 151226Z 20004KT 18/15 A2995 RMK A01 T01840149  RH  080%=      5-min Rain = 0
KCO2 151227Z 20004KT 18/15 A2995 RMK A01 T01840149  RH  080%=      5-min Rain = 0
KCO2 151228Z 20004KT 19/15 A2995 RMK A01 T01850149  RH  080%=      5-min Rain = 0
KCO2 151229Z 20005KT 19/15 A2995 RMK A01 T01860150  RH  080%=      5-min Rain = 0
KCO2 151230Z 20005KT 19/15 A2995 RMK A01 T01870150  RH  079%=      5-min Rain = 0
KCO2 151231Z 20005KT 19/15 A2995 RMK A01 T01870149  RH  079%=      5-min Rain = 0
KCO2 151232Z 20005KT 19/15 A2995 RMK A01 T01880150  RH  079%=      5-min Rain = 0
KCO2 151233Z 19005KT 19/15 A2995 RMK A01 T01890150  RH  078%=      5-min Rain = 0
KCO2 151234Z 19005KT 19/15 A2995 RMK A01 T01890150  RH  078%=      5-min Rain = 0
KCO2 151235Z 19006KT 19/15 A2995 RMK A01 T01900150  RH  078%=      5-min Rain = 0
KCO2 151236Z 20006KT 19/15 A2995 RMK A01 T01910151  RH  078%=      5-min Rain = 0
KCO2 151237Z 20006KT 19/15 A2995 RMK A01 T01920152  RH  077%=      5-min Rain = 0
KCO2 151238Z 20005KT 19/15 A2995 RMK A01 T01930152  RH  077%=      5-min Rain = 0
KCO2 151239Z 20006KT 19/15 A2995 RMK A01 T01940153  RH  077%=      5-min Rain = 0
KCO2 151240Z 19006KT 20/15 A2995 RMK A01 T01960154  RH  077%=      5-min Rain = 0
KCO2 151241Z 19006KT 20/16 A2995 RMK A01 T01970155  RH  077%=      5-min Rain = 0
KCO2 151242Z 19005KT 20/16 A2995 RMK A01 T01970155  RH  076%=      5-min Rain = 0
KCO2 151243Z 19006KT 20/16 A2995 RMK A01 T01980155  RH  076%=      5-min Rain = 0
KCO2 151244Z 19005KT 20/16 A2996 RMK A01 T01980155  RH  076%=      5-min Rain = 0
KCO2 151245Z 20005KT 20/16 A2996 RMK A01 T01990156  RH  076%=      5-min Rain = 0
KCO2 151246Z 19005KT 20/16 A2996 RMK A01 T02000156  RH  076%=      5-min Rain = 0
KCO2 151247Z 18005KT 20/16 A2996 RMK A01 T02000156  RH  076%=      5-min Rain = 0
KCO2 151248Z 18006KT 20/16 A2996 RMK A01 T02010156  RH  075%=      5-min Rain = 0
KCO2 151249Z 18005KT 20/16 A2996 RMK A01 T02010156  RH  075%=      5-min Rain = 0
KCO2 151250Z 19004KT 20/16 A2996 RMK A01 T02020156  RH  075%=      5-min Rain = 0
KCO2 151251Z 18005KT 20/16 A2996 RMK A01 T02020156  RH  075%=      5-min Rain = 0
KCO2 151252Z 18005KT 20/16 A2996 RMK A01 T02030156  RH  075%=      5-min Rain = 0
KCO2 151253Z 18004KT 20/16 A2996 RMK A01 T02030157  RH  075%=      5-min Rain = 0
KCO2 151254Z 17003KT 20/16 A2996 RMK A01 T02030158  RH  075%=      5-min Rain = 0
KCO2 151255Z 17003KT 20/16 A2996 RMK A01 T02040158  RH  075%=      5-min Rain = 0
KCO2 151256Z 18005KT 21/16 A2996 RMK A01 T02050159  RH  075%=      5-min Rain = 0
KCO2 151257Z 18005KT 21/16 A2996 RMK A01 T02060158  RH  074%=      5-min Rain = 0
KCO2 151258Z 19004KT 21/16 A2996 RMK A01 T02060158  RH  074%=      5-min Rain = 0
KCO2 151259Z 18005KT 21/16 A2996 RMK A01 T02070160  RH  075%=      5-min Rain = 0
KCO2 151300Z 18005KT 21/16 A2996 RMK A01 T02070161  RH  075%=      5-min Rain = 0
KCO2 151301Z 18005KT 21/16 A2996 RMK A01 T02080161  RH  075%=      5-min Rain = 0
KCO2 151302Z 18006KT 21/16 A2996 RMK A01 T02090162  RH  074%=      5-min Rain = 0
KCO2 151303Z 18006KT 21/16 A2996 RMK A01 T02100162  RH  074%=      5-min Rain = 0
KCO2 151304Z 18005KT 21/16 A2997 RMK A01 T02100162  RH  074%=      5-min Rain = 0
KCO2 151305Z 18006KT 21/16 A2997 RMK A01 T02110162  RH  074%=      5-min Rain = 0
KCO2 151306Z 18006KT 21/16 A2997 RMK A01 T02110163  RH  074%=      5-min Rain = 0
KCO2 151307Z 18006KT 21/16 A2997 RMK A01 T02120162  RH  073%=      5-min Rain = 0
KCO2 151308Z 18006KT 21/16 A2997 RMK A01 T02120164  RH  074%=      5-min Rain = 0
KCO2 151309Z 17005KT 21/16 A2997 RMK A01 T02130163  RH  073%=      5-min Rain = 0
KCO2 151310Z 17005KT 21/17 A2997 RMK A01 T02140165  RH  074%=      5-min Rain = 0
KCO2 151311Z 17007KT 21/17 A2997 RMK A01 T02140165  RH  073%=      5-min Rain = 0
KCO2 151312Z 17006KT 22/17 A2997 RMK A01 T02150166  RH  073%=      5-min Rain = 0
KCO2 151313Z 16005KT 22/17 A2997 RMK A01 T02160167  RH  073%=      5-min Rain = 0
KCO2 151314Z 16005KT 22/17 A2997 RMK A01 T02170168  RH  073%=      5-min Rain = 0
KCO2 151315Z 16005KT 22/17 A2997 RMK A01 T02180168  RH  073%=      5-min Rain = 0
KCO2 151316Z 17005KT 22/17 A2997 RMK A01 T02190168  RH  073%=      5-min Rain = 0
KCO2 151317Z 17006KT 22/17 A2997 RMK A01 T02200168  RH  072%=      5-min Rain = 0
KCO2 151318Z 17006KT 22/17 A2997 RMK A01 T02200168  RH  072%=      5-min Rain = 0
KCO2 151319Z 18008KT 22/17 A2997 RMK A01 T02210169  RH  072%=      5-min Rain = 0
KCO2 151320Z 18007KT 22/17 A2996 RMK A01 T02210168  RH  072%=      5-min Rain = 0
KCO2 151321Z 18007KT 22/17 A2996 RMK A01 T02210169  RH  072%=      5-min Rain = 0
KCO2 151322Z 17008KT 22/17 A2996 RMK A01 T02210168  RH  072%=      5-min Rain = 0
KCO2 151323Z 18007KT 22/17 A2996 RMK A01 T02220169  RH  072%=      5-min Rain = 0
KCO2 151324Z 18008KT 22/17 A2996 RMK A01 T02220169  RH  072%=      5-min Rain = 0
KCO2 151325Z 18007KT 22/17 A2996 RMK A01 T02230170  RH  072%=      5-min Rain = 0
KCO2 151326Z 19008KT 22/17 A2996 RMK A01 T02230170  RH  072%=      5-min Rain = 0
KCO2 151327Z 19006KT 22/17 A2996 RMK A01 T02230169  RH  071%=      5-min Rain = 0
KCO2 151328Z 19007KT 22/17 A2996 RMK A01 T02240172  RH  072%=      5-min Rain = 0
KCO2 151329Z 18008KT 23/17 A2996 RMK A01 T02250171  RH  072%=      5-min Rain = 0
KCO2 151330Z 19009KT 23/17 A2996 RMK A01 T02260171  RH  071%=      5-min Rain = 0
KCO2 151331Z 20008KT 23/17 A2996 RMK A01 T02250171  RH  071%=      5-min Rain = 0
KCO2 151332Z 18006KT 23/17 A2996 RMK A01 T02260173  RH  072%=      5-min Rain = 0
KCO2 151333Z 19008KT 23/17 A2996 RMK A01 T02270173  RH  072%=      5-min Rain = 0
KCO2 151334Z 19008KT 23/17 A2996 RMK A01 T02270172  RH  071%=      5-min Rain = 0
KCO2 151335Z 19008KT 23/17 A2996 RMK A01 T02270172  RH  071%=      5-min Rain = 0
KCO2 151336Z 19008KT 23/17 A2996 RMK A01 T02270173  RH  072%=      5-min Rain = 0
KCO2 151337Z 18007KT 23/17 A2996 RMK A01 T02270173  RH  072%=      5-min Rain = 0
KCO2 151338Z 19008KT 23/17 A2996 RMK A01 T02270173  RH  071%=      5-min Rain = 0
KCO2 151339Z 20007KT 23/17 A2996 RMK A01 T02270172  RH  071%=      5-min Rain = 0
KCO2 151340Z 20007KT 23/17 A2996 RMK A01 T02270174  RH  072%=      5-min Rain = 0
KCO2 151341Z 20009KT 23/17 A2996 RMK A01 T02280174  RH  071%=      5-min Rain = 0
KCO2 151342Z 19009KT 23/17 A2996 RMK A01 T02290174  RH  071%=      5-min Rain = 0
KCO2 151343Z 19006KT 23/17 A2996 RMK A01 T02290173  RH  071%=      5-min Rain = 0
KCO2 151344Z 19006KT 23/17 A2996 RMK A01 T02300174  RH  071%=      5-min Rain = 0
KCO2 151345Z 20008KT 23/17 A2997 RMK A01 T02300174  RH  070%=      5-min Rain = 0
KCO2 151346Z 20008KT 23/18 A2997 RMK A01 T02310175  RH  071%=      5-min Rain = 0
KCO2 151347Z 19008KT 23/17 A2997 RMK A01 T02310174  RH  070%=      5-min Rain = 0
KCO2 151348Z 19008KT 23/18 A2996 RMK A01 T02320175  RH  070%=      5-min Rain = 0
KCO2 151349Z 19008KT 23/18 A2997 RMK A01 T02320175  RH  070%=      5-min Rain = 0
KCO2 151350Z 21007KT 23/17 A2997 RMK A01 T02320174  RH  070%=      5-min Rain = 0
KCO2 151351Z 21008KT 23/18 A2997 RMK A01 T02330175  RH  070%=      5-min Rain = 0
KCO2 151352Z 20007KT 23/18 A2997 RMK A01 T02320175  RH  070%=      5-min Rain = 0
KCO2 151353Z 19007KT 23/18 A2997 RMK A01 T02330176  RH  070%=      5-min Rain = 0
KCO2 151354Z 20007KT 23/18 A2997 RMK A01 T02340176  RH  070%=      5-min Rain = 0
KCO2 151355Z 20008KT 23/17 A2997 RMK A01 T02340174  RH  069%=      5-min Rain = 0
KCO2 151356Z 20010KT 23/18 A2997 RMK A01 T02340175  RH  070%=      5-min Rain = 0
KCO2 151357Z 19010KT 23/17 A2997 RMK A01 T02330174  RH  069%=      5-min Rain = 0
KCO2 151358Z 20008KT 23/18 A2997 RMK A01 T02330176  RH  070%=      5-min Rain = 0
KCO2 151359Z 21008KT 23/18 A2997 RMK A01 T02340176  RH  070%=      5-min Rain = 0
KCO2 151400Z 20010KT 23/18 A2997 RMK A01 T02340175  RH  069%=      5-min Rain = 0
KCO2 151401Z 20011KT 24/18 A2996 RMK A01 T02350175  RH  069%=      5-min Rain = 0
KCO2 151402Z 19009KT 24/18 A2996 RMK A01 T02350175  RH  069%=      5-min Rain = 0
KCO2 151403Z 21008KT 24/18 A2996 RMK A01 T02350177  RH  070%=      5-min Rain = 0
KCO2 151404Z 20009KT 24/18 A2996 RMK A01 T02370177  RH  069%=      5-min Rain = 0
KCO2 151405Z 19011KT 24/18 A2996 RMK A01 T02380176  RH  068%=      5-min Rain = 0
KCO2 151406Z 19009G14KT 24/18 A2996 RMK A01 T02370177  RH  069%=      5-min Rain = 0
KCO2 151407Z 20011KT 24/18 A2996 RMK A01 T02380177  RH  069%=      5-min Rain = 0
KCO2 151408Z 20009KT 24/18 A2996 RMK A01 T02380176  RH  068%=      5-min Rain = 0
KCO2 151409Z 20009KT 24/18 A2996 RMK A01 T02380177  RH  068%=      5-min Rain = 0
KCO2 151410Z 19010KT 24/18 A2996 RMK A01 T02390175  RH  068%=      5-min Rain = 0
KCO2 151411Z 20008KT 24/18 A2996 RMK A01 T02380175  RH  068%=      5-min Rain = 0
KCO2 151412Z 20007KT 24/18 A2996 RMK A01 T02380177  RH  069%=      5-min Rain = 0
KCO2 151413Z 22008KT 24/18 A2996 RMK A01 T02400177  RH  068%=      5-min Rain = 0
KCO2 151414Z 22010KT 24/18 A2996 RMK A01 T02400176  RH  067%=      5-min Rain = 0
KCO2 151415Z 21009KT 24/18 A2996 RMK A01 T02410176  RH  067%=      5-min Rain = 0
KCO2 151416Z 21010KT 24/18 A2996 RMK A01 T02410176  RH  067%=      5-min Rain = 0
KCO2 151417Z 22009KT 24/18 A2996 RMK A01 T02400175  RH  067%=      5-min Rain = 0
KCO2 151418Z 22010KT 24/18 A2996 RMK A01 T02390175  RH  067%=      5-min Rain = 0
KCO2 151419Z 21009KT 24/18 A2996 RMK A01 T02400175  RH  067%=      5-min Rain = 0
KCO2 151420Z 21009KT 24/18 A2996 RMK A01 T02400176  RH  067%=      5-min Rain = 0
KCO2 151421Z 22008KT 24/18 A2996 RMK A01 T02410176  RH  067%=      5-min Rain = 0
KCO2 151422Z 21009KT 24/18 A2996 RMK A01 T02420177  RH  067%=      5-min Rain = 0
KCO2 151423Z 21007KT 24/18 A2996 RMK A01 T02430177  RH  067%=      5-min Rain = 0
KCO2 151424Z 21009KT 25/18 A2996 RMK A01 T02450177  RH  066%=      5-min Rain = 0
KCO2 151425Z 22008KT 25/18 A2996 RMK A01 T02450177  RH  066%=      5-min Rain = 0
KCO2 151426Z 22007KT 24/18 A2996 RMK A01 T02440177  RH  066%=      5-min Rain = 0
KCO2 151427Z 20008KT 24/18 A2996 RMK A01 T02430178  RH  067%=      5-min Rain = 0
KCO2 151428Z 21008KT 25/18 A2996 RMK A01 T02450180  RH  067%=      5-min Rain = 0
KCO2 151429Z 22009KT 25/18 A2996 RMK A01 T02480179  RH  066%=      5-min Rain = 0
KCO2 151430Z 21007KT 25/18 A2996 RMK A01 T02490179  RH  065%=      5-min Rain = 0
KCO2 151431Z 21007KT 25/18 A2996 RMK A01 T02490178  RH  065%=      5-min Rain = 0
KCO2 151432Z 22006KT 25/18 A2996 RMK A01 T02490179  RH  065%=      5-min Rain = 0
KCO2 151433Z 21009KT 25/18 A2996 RMK A01 T02490178  RH  065%=      5-min Rain = 0
KCO2 151434Z 21007KT 25/18 A2996 RMK A01 T02500178  RH  064%=      5-min Rain = 0
KCO2 151435Z 22005KT 25/18 A2996 RMK A01 T02500180  RH  065%=      5-min Rain = 0
KCO2 151436Z 22009KT 25/18 A2996 RMK A01 T02520180  RH  064%=      5-min Rain = 0
KCO2 151437Z 21011KT 25/18 A2996 RMK A01 T02520178  RH  063%=      5-min Rain = 0
KCO2 151438Z 21009KT 25/18 A2996 RMK A01 T02510179  RH  064%=      5-min Rain = 0
KCO2 151439Z 21009KT 25/18 A2996 RMK A01 T02510177  RH  063%=      5-min Rain = 0
KCO2 151440Z 22007KT 25/18 A2996 RMK A01 T02500178  RH  064%=      5-min Rain = 0
KCO2 151441Z 21008KT 25/18 A2996 RMK A01 T02510179  RH  064%=      5-min Rain = 0
KCO2 151442Z 21008KT 25/18 A2996 RMK A01 T02510180  RH  064%=      5-min Rain = 0
KCO2 151443Z 22008KT 25/18 A2996 RMK A01 T02510179  RH  064%=      5-min Rain = 0
KCO2 151444Z 20009KT 25/18 A2996 RMK A01 T02520180  RH  064%=      5-min Rain = 0
KCO2 151445Z 20010KT 25/18 A2996 RMK A01 T02540179  RH  063%=      5-min Rain = 0
KCO2 151446Z 20010KT 26/18 A2996 RMK A01 T02550178  RH  062%=      5-min Rain = 0
KCO2 151447Z 20007KT 26/18 A2996 RMK A01 T02550178  RH  063%=      5-min Rain = 0
KCO2 151448Z 20009KT 25/18 A2996 RMK A01 T02540179  RH  063%=      5-min Rain = 0
KCO2 151449Z 19009KT 25/18 A2996 RMK A01 T02540177  RH  062%=      5-min Rain = 0
KCO2 151450Z 18010KT 25/18 A2996 RMK A01 T02540177  RH  062%=      5-min Rain = 0
KCO2 151451Z 20009KT 26/18 A2996 RMK A01 T02550178  RH  062%=      5-min Rain = 0
KCO2 151452Z 22011KT 26/18 A2996 RMK A01 T02570177  RH  061%=      5-min Rain = 0
KCO2 151453Z 21007KT 26/18 A2996 RMK A01 T02580177  RH  061%=      5-min Rain = 0
KCO2 151454Z 21010KT 26/18 A2996 RMK A01 T02580177  RH  061%=      5-min Rain = 0
KCO2 151455Z 21009KT 26/18 A2996 RMK A01 T02590177  RH  061%=      5-min Rain = 0
KCO2 151456Z 21009KT 26/18 A2996 RMK A01 T02600177  RH  060%=      5-min Rain = 0
KCO2 151457Z 21007KT 26/18 A2996 RMK A01 T02600175  RH  060%=      5-min Rain = 0
KCO2 151458Z 23009KT 26/18 A2996 RMK A01 T02610176  RH  059%=      5-min Rain = 0
KCO2 151459Z 20007KT 26/18 A2996 RMK A01 T02640177  RH  059%=      5-min Rain = 0
KCO2 151500Z 19008KT 27/18 A2996 RMK A01 T02650178  RH  059%=      5-min Rain = 0
KCO2 151501Z 21009KT 27/18 A2996 RMK A01 T02650179  RH  059%=      5-min Rain = 0
KCO2 151502Z 20009KT 26/18 A2996 RMK A01 T02640177  RH  059%=      5-min Rain = 0
KCO2 151503Z 20008KT 26/18 A2996 RMK A01 T02610177  RH  060%=      5-min Rain = 0
KCO2 151504Z 22009KT 26/18 A2996 RMK A01 T02620177  RH  059%=      5-min Rain = 0
KCO2 151505Z 22008KT 26/17 A2996 RMK A01 T02640174  RH  058%=      5-min Rain = 0
KCO2 151506Z 21008KT 27/18 A2996 RMK A01 T02650176  RH  058%=      5-min Rain = 0
KCO2 151507Z 21009KT 27/18 A2996 RMK A01 T02680179  RH  058%=      5-min Rain = 0
KCO2 151508Z 22008KT 27/18 A2996 RMK A01 T02700177  RH  057%=      5-min Rain = 0
KCO2 151509Z 22008KT 27/17 A2996 RMK A01 T02700174  RH  056%=      5-min Rain = 0
KCO2 151510Z 21007G12KT 27/18 A2996 RMK A01 T02720176  RH  056%=      5-min Rain = 0
KCO2 151511Z 20009KT 27/18 A2996 RMK A01 T02740176  RH  055%=      5-min Rain = 0
KCO2 151512Z 19008KT 27/18 A2996 RMK A01 T02720176  RH  056%=      5-min Rain = 0
KCO2 151513Z 20005KT 27/18 A2996 RMK A01 T02700175  RH  056%=      5-min Rain = 0
KCO2 151514Z 21009KT 27/18 A2996 RMK A01 T02690176  RH  057%=      5-min Rain = 0
KCO2 151515Z 22009KT 27/18 A2996 RMK A01 T02700175  RH  056%=      5-min Rain = 0
KCO2 151516Z 21009KT 27/17 A2997 RMK A01 T02730173  RH  054%=      5-min Rain = 0
KCO2 151517Z 23008KT 28/17 A2997 RMK A01 T02750173  RH  054%=      5-min Rain = 0
KCO2 151518Z 23006KT 28/17 A2997 RMK A01 T02750173  RH  054%=      5-min Rain = 0
KCO2 151519Z 21005KT 27/17 A2997 RMK A01 T02740174  RH  054%=      5-min Rain = 0
KCO2 151520Z 22008KT 28/18 A2997 RMK A01 T02750175  RH  054%=      5-min Rain = 0
KCO2 151521Z 22006KT 27/17 A2997 RMK A01 T02740173  RH  054%=      5-min Rain = 0
KCO2 151522Z 23005KT 27/17 A2997 RMK A01 T02730172  RH  054%=      5-min Rain = 0
KCO2 151523Z 22004G9KT 27/17 A2997 RMK A01 T02710173  RH  055%=      5-min Rain = 0
KCO2 151524Z 18009KT 27/17 A2997 RMK A01 T02710173  RH  055%=      5-min Rain = 0
KCO2 151525Z 22009KT 27/17 A2998 RMK A01 T02720169  RH  053%=      5-min Rain = 0
KCO2 151526Z 22005KT 27/17 A2998 RMK A01 T02720169  RH  053%=      5-min Rain = 0
KCO2 151527Z 21005KT 27/17 A2998 RMK A01 T02720169  RH  053%=      5-min Rain = 0
KCO2 151528Z 20004KT 27/17 A2998 RMK A01 T02720168  RH  053%=      5-min Rain = 0
KCO2 151529Z 22004KT 27/17 A2998 RMK A01 T02720171  RH  054%=      5-min Rain = 0
KCO2 151530Z 22005KT 27/17 A2999 RMK A01 T02730171  RH  054%=      5-min Rain = 0
KCO2 151531Z 22004KT 27/17 A2999 RMK A01 T02740169  RH  053%=      5-min Rain = 0
KCO2 151532Z 25004KT 27/17 A2999 RMK A01 T02730168  RH  053%=      5-min Rain = 0
KCO2 151533Z 22004KT 27/17 A2999 RMK A01 T02720170  RH  054%=      5-min Rain = 0
KCO2 151534Z 22005KT 27/17 A2999 RMK A01 T02730168  RH  053%=      5-min Rain = 0
KCO2 151535Z 21004KT 27/17 A2998 RMK A01 T02730168  RH  053%=      5-min Rain = 0
KCO2 151536Z 20003KT 27/17 A2998 RMK A01 T02730169  RH  053%=      5-min Rain = 0
KCO2 151537Z 19002KT 27/17 A2998 RMK A01 T02730167  RH  052%=      5-min Rain = 0
KCO2 151538Z 22005KT 27/17 A2998 RMK A01 T02720171  RH  054%=      5-min Rain = 0
KCO2 151539Z 23007KT 28/17 A2998 RMK A01 T02760170  RH  053%=      5-min Rain = 0
KCO2 151540Z 24005KT 28/17 A2998 RMK A01 T02760168  RH  052%=      5-min Rain = 0
KCO2 151541Z 24006KT 28/17 A2998 RMK A01 T02750170  RH  053%=      5-min Rain = 0
KCO2 151542Z 21006KT 28/17 A2998 RMK A01 T02770171  RH  053%=      5-min Rain = 0
KCO2 151543Z 19006KT 28/17 A2997 RMK A01 T02780171  RH  052%=      5-min Rain = 0
KCO2 151544Z 17007KT 28/17 A2997 RMK A01 T02790172  RH  052%=      5-min Rain = 0
KCO2 151545Z 16006KT 28/17 A2997 RMK A01 T02800174  RH  053%=      5-min Rain = 0
KCO2 151546Z 18005KT 28/17 A2998 RMK A01 T02820173  RH  051%=      5-min Rain = 0
KCO2 151547Z 24005KT 28/17 A2998 RMK A01 T02820172  RH  051%=      5-min Rain = 0
KCO2 151548Z 25003KT 28/17 A2998 RMK A01 T02820170  RH  051%=      5-min Rain = 0
KCO2 151549Z 21004KT 28/17 A2998 RMK A01 T02820170  RH  050%=      5-min Rain = 0
KCO2 151550Z 19003KT 28/17 A2998 RMK A01 T02810168  RH  050%=      5-min Rain = 0
KCO2 151551Z 21001KT 28/17 A2999 RMK A01 T02800168  RH  051%=      5-min Rain = 0
KCO2 151552Z 06002KT 28/17 A2999 RMK A01 T02790169  RH  051%=      5-min Rain = 0
KCO2 151553Z 08002KT 28/17 A2999 RMK A01 T02790171  RH  052%=      5-min Rain = 0
KCO2 151554Z 08000KT 28/17 A2999 RMK A01 T02790172  RH  052%=      5-min Rain = 0
KCO2 151555Z 14001KT 28/17 A2999 RMK A01 T02800168  RH  050%=      5-min Rain = 0
KCO2 151556Z 14003KT 28/17 A2999 RMK A01 T02810171  RH  051%=      5-min Rain = 0
KCO2 151557Z 16004KT 28/17 A2999 RMK A01 T02830172  RH  051%=      5-min Rain = 0
KCO2 151558Z 15007KT 29/17 A2998 RMK A01 T02850171  RH  050%=      5-min Rain = 0
KCO2 151559Z 18006KT 29/17 A2998 RMK A01 T02860169  RH  049%=      5-min Rain = 0
KCO2 151600Z 19005KT 29/17 A2998 RMK A01 T02860171  RH  050%=      5-min Rain = 0
KCO2 151601Z 20004KT 29/17 A2998 RMK A01 T02850169  RH  049%=      5-min Rain = 0
KCO2 151602Z 21007KT 29/17 A2998 RMK A01 T02850172  RH  050%=      5-min Rain = 0
KCO2 151603Z 21009KT 29/17 A2998 RMK A01 T02870170  RH  049%=      5-min Rain = 0
KCO2 151604Z 20008KT 29/17 A2997 RMK A01 T02880170  RH  049%=      5-min Rain = 0
KCO2 151605Z 20006KT 29/17 A2997 RMK A01 T02880168  RH  048%=      5-min Rain = 0
KCO2 151606Z 22006KT 29/17 A2997 RMK A01 T02890172  RH  049%=      5-min Rain = 0
KCO2 151607Z 21006KT 29/17 A2997 RMK A01 T02910170  RH  048%=      5-min Rain = 0
KCO2 151608Z 24004KT 29/17 A2997 RMK A01 T02910169  RH  048%=      5-min Rain = 0
KCO2 151609Z 23004KT 29/17 A2997 RMK A01 T02890167  RH  048%=      5-min Rain = 0
KCO2 151610Z 22004KT 29/17 A2997 RMK A01 T02860169  RH  049%=      5-min Rain = 0
KCO2 151611Z 19006KT 29/17 A2998 RMK A01 T02860169  RH  049%=      5-min Rain = 0
KCO2 151612Z 16006KT 29/17 A2998 RMK A01 T02870168  RH  049%=      5-min Rain = 0
KCO2 151613Z 16007KT 29/17 A2998 RMK A01 T02890167  RH  048%=      5-min Rain = 0
KCO2 151614Z 14004KT 29/17 A2998 RMK A01 T02880166  RH  048%=      5-min Rain = 0
KCO2 151615Z 14003KT 29/17 A2998 RMK A01 T02860168  RH  049%=      5-min Rain = 0
KCO2 151616Z 13005KT 29/17 A2998 RMK A01 T02870168  RH  049%=      5-min Rain = 0
KCO2 151617Z 13004KT 29/17 A2998 RMK A01 T02880168  RH  048%=      5-min Rain = 0
KCO2 151618Z 13004KT 29/17 A2998 RMK A01 T02890170  RH  048%=      5-min Rain = 0
KCO2 151619Z 14006KT 29/17 A2998 RMK A01 T02920170  RH  048%=      5-min Rain = 0
KCO2 151620Z 13005KT 29/17 A2998 RMK A01 T02940170  RH  047%=      5-min Rain = 0
KCO2 151621Z 15004KT 30/17 A2998 RMK A01 T02950172  RH  047%=      5-min Rain = 0
KCO2 151622Z 14005KT 30/17 A2998 RMK A01 T02970170  RH  046%=      5-min Rain = 0
KCO2 151623Z 18007KT 30/17 A2998 RMK A01 T02980170  RH  046%=      5-min Rain = 0
KCO2 151624Z 18007KT 30/17 A2998 RMK A01 T02980167  RH  045%=      5-min Rain = 0
KCO2 151625Z 21006KT 30/17 A2998 RMK A01 T02970169  RH  046%=      5-min Rain = 0
KCO2 151626Z 23006KT 30/17 A2998 RMK A01 T02970169  RH  046%=      5-min Rain = 0
KCO2 151627Z 23006KT 30/17 A2998 RMK A01 T02970169  RH  046%=      5-min Rain = 0
KCO2 151628Z 23009KT 30/17 A2998 RMK A01 T02960169  RH  046%=      5-min Rain = 0
KCO2 151629Z 23004KT 30/17 A2998 RMK A01 T02960168  RH  046%=      5-min Rain = 0
KCO2 151630Z 25003KT 30/17 A2998 RMK A01 T02950166  RH  046%=      5-min Rain = 0
KCO2 151631Z 24004KT 29/17 A2997 RMK A01 T02940169  RH  047%=      5-min Rain = 0
KCO2 151632Z 24004KT 29/17 A2998 RMK A01 T02940168  RH  046%=      5-min Rain = 0
KCO2 151633Z 22005KT 30/17 A2998 RMK A01 T02950170  RH  047%=      5-min Rain = 0
KCO2 151634Z 24005KT 30/17 A2998 RMK A01 T02960169  RH  046%=      5-min Rain = 0
KCO2 151635Z 27003KT 30/17 A2998 RMK A01 T02950170  RH  047%=      5-min Rain = 0
KCO2 151636Z 27004KT 30/17 A2998 RMK A01 T02950169  RH  047%=      5-min Rain = 0
KCO2 151637Z 24004KT 29/17 A2998 RMK A01 T02940169  RH  047%=      5-min Rain = 0
KCO2 151638Z 19007KT 30/17 A2998 RMK A01 T02950170  RH  047%=      5-min Rain = 0
KCO2 151639Z 15005KT 30/18 A2998 RMK A01 T02990176  RH  048%=      5-min Rain = 0
KCO2 151640Z 14005KT 30/18 A2998 RMK A01 T03020180  RH  048%=      5-min Rain = 0
KCO2 151641Z 13003KT 31/18 A2998 RMK A01 T03050177  RH  046%=      5-min Rain = 0
KCO2 151642Z 12006KT 31/18 A2998 RMK A01 T03060175  RH  046%=      5-min Rain = 0
KCO2 151643Z 17006KT 31/17 A2998 RMK A01 T03050172  RH  045%=      5-min Rain = 0
KCO2 151644Z 21005KT 30/17 A2998 RMK A01 T03040171  RH  045%=      5-min Rain = 0
KCO2 151645Z 17005KT 30/17 A2998 RMK A01 T03040173  RH  045%=      5-min Rain = 0
KCO2 151646Z 15004KT 30/17 A2998 RMK A01 T03040173  RH  045%=      5-min Rain = 0
KCO2 151647Z 21005KT 31/17 A2998 RMK A01 T03060171  RH  044%=      5-min Rain = 0
KCO2 151648Z 17007KT 31/17 A2998 RMK A01 T03070174  RH  045%=      5-min Rain = 0
KCO2 151649Z 17006KT 31/17 A2998 RMK A01 T03070171  RH  044%=      5-min Rain = 0
KCO2 151650Z 16005KT 31/17 A2998 RMK A01 T03050171  RH  045%=      5-min Rain = 0
KCO2 151651Z 16004KT 30/17 A2998 RMK A01 T03030172  RH  045%=      5-min Rain = 0
KCO2 151652Z 16006KT 30/17 A2998 RMK A01 T03030170  RH  045%=      5-min Rain = 0
KCO2 151653Z 16004KT 30/17 A2998 RMK A01 T03020169  RH  045%=      5-min Rain = 0
KCO2 151654Z 14003KT 30/17 A2998 RMK A01 T02990170  RH  046%=      5-min Rain = 0
KCO2 151655Z 07005KT 30/17 A2998 RMK A01 T02990173  RH  047%=      5-min Rain = 0
KCO2 151656Z 05003KT 30/17 A2998 RMK A01 T03000171  RH  046%=      5-min Rain = 0
KCO2 151657Z 35002KT 30/17 A2998 RMK A01 T03000173  RH  046%=      5-min Rain = 0
KCO2 151658Z 34002KT 30/18 A2998 RMK A01 T03020176  RH  047%=      5-min Rain = 0
KCO2 151659Z 27003KT 31/18 A2998 RMK A01 T03050175  RH  046%=      5-min Rain = 0
KCO2 151700Z 22006KT 31/18 A2998 RMK A01 T03070175  RH  045%=      5-min Rain = 0
KCO2 151701Z 17007KT 31/17 A2998 RMK A01 T03090171  RH  044%=      5-min Rain = 0
KCO2 151702Z 18008KT 31/17 A2998 RMK A01 T03110170  RH  043%=      5-min Rain = 0
KCO2 151703Z 17007KT 31/17 A2998 RMK A01 T03110166  RH  042%=      5-min Rain = 0
KCO2 151704Z 18006KT 31/17 A2998 RMK A01 T03090167  RH  043%=      5-min Rain = 0
KCO2 151705Z 16006KT 31/17 A2999 RMK A01 T03090169  RH  043%=      5-min Rain = 0
KCO2 151706Z 15006KT 31/17 A2999 RMK A01 T03110169  RH  043%=      5-min Rain = 0
KCO2 151707Z 16004KT 31/17 A2999 RMK A01 T03110170  RH  043%=      5-min Rain = 0
KCO2 151708Z 18003KT 31/17 A2999 RMK A01 T03080169  RH  043%=      5-min Rain = 0
KCO2 151709Z 21006KT 31/17 A2999 RMK A01 T03070166  RH  043%=      5-min Rain = 0
KCO2 151710Z 22005KT 31/17 A2999 RMK A01 T03070166  RH  043%=      5-min Rain = 0
KCO2 151711Z 20007KT 31/17 A2999 RMK A01 T03110166  RH  042%=      5-min Rain = 0
KCO2 151712Z 20004KT 31/17 A2999 RMK A01 T03100165  RH  042%=      5-min Rain = 0
KCO2 151713Z 19001KT 31/17 A2999 RMK A01 T03070165  RH  042%=      5-min Rain = 0
KCO2 151714Z 14002KT 31/17 A2999 RMK A01 T03070168  RH  043%=      5-min Rain = 0
KCO2 151715Z 10003KT 31/17 A2999 RMK A01 T03090167  RH  043%=      5-min Rain = 0
KCO2 151716Z 09005KT 31/18 A2999 RMK A01 T03090175  RH  045%=      5-min Rain = 0
KCO2 151717Z 09004KT 31/18 A2999 RMK A01 T03090176  RH  045%=      5-min Rain = 0
KCO2 151718Z 09005KT 31/17 A2999 RMK A01 T03100174  RH  044%=      5-min Rain = 0
KCO2 151719Z 07005KT 31/18 A2999 RMK A01 T03110177  RH  045%=      5-min Rain = 0
KCO2 151720Z 06003KT 31/18 A2999 RMK A01 T03110175  RH  044%=      5-min Rain = 0
KCO2 151721Z 06003KT 31/18 A2999 RMK A01 T03100176  RH  045%=      5-min Rain = 0
KCO2 151722Z 12005KT 31/17 A2999 RMK A01 T03100174  RH  044%=      5-min Rain = 0
KCO2 151723Z 14006KT 31/17 A2999 RMK A01 T03090173  RH  044%=      5-min Rain = 0
KCO2 151724Z 17005KT 31/17 A2999 RMK A01 T03100172  RH  044%=      5-min Rain = 0
KCO2 151725Z 16005KT 31/17 A2999 RMK A01 T03090172  RH  044%=      5-min Rain = 0
KCO2 151726Z 16005KT 31/17 A2999 RMK A01 T03090171  RH  044%=      5-min Rain = 0
KCO2 151727Z 16005KT 31/17 A2999 RMK A01 T03100172  RH  044%=      5-min Rain = 0
KCO2 151728Z 15005KT 31/17 A2999 RMK A01 T03110171  RH  043%=      5-min Rain = 0
KCO2 151729Z 15005KT 31/17 A2999 RMK A01 T03110172  RH  043%=      5-min Rain = 0
KCO2 151730Z 15005KT 31/17 A2999 RMK A01 T03110171  RH  043%=      5-min Rain = 0
KCO2 151731Z 15002KT 31/17 A2999 RMK A01 T03090171  RH  044%=      5-min Rain = 0
KCO2 151732Z 11006KT 31/17 A2999 RMK A01 T03090173  RH  044%=      5-min Rain = 0
KCO2 151733Z 11007KT 31/18 A2999 RMK A01 T03110175  RH  044%=      5-min Rain = 0
KCO2 151734Z 12004KT 31/17 A2999 RMK A01 T03140173  RH  043%=      5-min Rain = 0
KCO2 151735Z 12003KT 32/17 A2999 RMK A01 T03150173  RH  043%=      5-min Rain = 0
KCO2 151736Z 12005KT 31/17 A2999 RMK A01 T03140173  RH  043%=      5-min Rain = 0
KCO2 151737Z 11004KT 32/18 A2999 RMK A01 T03150176  RH  043%=      5-min Rain = 0
KCO2 151738Z 09006KT 32/17 A2999 RMK A01 T03160173  RH  042%=      5-min Rain = 0
KCO2 151739Z 10004KT 31/17 A2998 RMK A01 T03120170  RH  043%=      5-min Rain = 0
KCO2 151740Z 09004KT 31/18 A2998 RMK A01 T03100176  RH  045%=      5-min Rain = 0
KCO2 151741Z 13005KT 31/17 A2998 RMK A01 T03120172  RH  043%=      5-min Rain = 0
KCO2 151742Z 10006KT 32/17 A2998 RMK A01 T03150173  RH  043%=      5-min Rain = 0
KCO2 151743Z 08004KT 32/17 A2998 RMK A01 T03160171  RH  042%=      5-min Rain = 0
KCO2 151744Z 14003KT 31/17 A2998 RMK A01 T03140169  RH  042%=      5-min Rain = 0
KCO2 151745Z 12007KT 31/17 A2997 RMK A01 T03130173  RH  043%=      5-min Rain = 0
KCO2 151746Z 13006KT 32/18 A2997 RMK A01 T03150175  RH  043%=      5-min Rain = 0
KCO2 151747Z 12007KT 32/17 A2997 RMK A01 T03190174  RH  042%=      5-min Rain = 0
KCO2 151748Z 10009KT 32/18 A2997 RMK A01 T03200179  RH  043%=      5-min Rain = 0
KCO2 151749Z 10008KT 32/18 A2997 RMK A01 T03210177  RH  042%=      5-min Rain = 0
KCO2 151750Z 10010KT 32/18 A2997 RMK A01 T03190179  RH  043%=      5-min Rain = 0
KCO2 151751Z 11009KT 32/18 A2997 RMK A01 T03200181  RH  044%=      5-min Rain = 0
KCO2 151752Z 10010KT 32/18 A2998 RMK A01 T03210179  RH  043%=      5-min Rain = 0
KCO2 151753Z 10007KT 32/18 A2998 RMK A01 T03200176  RH  042%=      5-min Rain = 0
KCO2 151754Z 11007KT 32/18 A2998 RMK A01 T03180180  RH  044%=      5-min Rain = 0
KCO2 151755Z 10007KT 32/18 A2998 RMK A01 T03200176  RH  042%=      5-min Rain = 0
KCO2 151756Z 08007KT 32/18 A2998 RMK A01 T03200176  RH  042%=      5-min Rain = 0
KCO2 151757Z 06004KT 32/17 A2998 RMK A01 T03170173  RH  042%=      5-min Rain = 0
KCO2 151758Z 07004KT 31/18 A2998 RMK A01 T03140176  RH  044%=      5-min Rain = 0
KCO2 151759Z 08009KT 32/18 A2998 RMK A01 T03150179  RH  044%=      5-min Rain = 0
KCO2 151800Z 12010KT 32/18 A2998 RMK A01 T03180179  RH  044%=      5-min Rain = 0
KCO2 151801Z 11011KT 32/18 A2998 RMK A01 T03200177  RH  043%=      5-min Rain = 0
KCO2 151802Z 11009KT 32/18 A2998 RMK A01 T03210178  RH  043%=      5-min Rain = 0
KCO2 151803Z 11007KT 32/18 A2998 RMK A01 T03210179  RH  043%=      5-min Rain = 0
KCO2 151804Z 11007KT 32/18 A2997 RMK A01 T03210181  RH  043%=      5-min Rain = 0
KCO2 151805Z 11006KT 32/18 A2997 RMK A01 T03220178  RH  042%=      5-min Rain = 0
KCO2 151806Z 13006KT 32/17 A2997 RMK A01 T03190173  RH  042%=      5-min Rain = 0
KCO2 151807Z 06004KT 31/17 A2997 RMK A01 T03140174  RH  043%=      5-min Rain = 0
KCO2 151808Z 09007KT 31/17 A2997 RMK A01 T03110174  RH  044%=      5-min Rain = 0
KCO2 151809Z 11004KT 31/17 A2997 RMK A01 T03080171  RH  044%=      5-min Rain = 0
KCO2 151810Z 09007G14KT 31/17 A2997 RMK A01 T03070173  RH  045%=      5-min Rain = 0
KCO2 151811Z 08008KT 31/17 A2997 RMK A01 T03070174  RH  045%=      5-min Rain = 0
KCO2 151812Z 09006KT 31/18 A2997 RMK A01 T03080176  RH  045%=      5-min Rain = 0
KCO2 151813Z 12008KT 31/18 A2997 RMK A01 T03100178  RH  045%=      5-min Rain = 0
KCO2 151814Z 11008KT 32/18 A2997 RMK A01 T03160178  RH  044%=      5-min Rain = 0
KCO2 151815Z 13009KT 32/18 A2997 RMK A01 T03190176  RH  043%=      5-min Rain = 0
KCO2 151816Z 12008KT 32/18 A2997 RMK A01 T03190175  RH  042%=      5-min Rain = 0
KCO2 151817Z 12007KT 32/17 A2998 RMK A01 T03180172  RH  042%=      5-min Rain = 0
KCO2 151818Z 12007KT 32/17 A2998 RMK A01 T03160171  RH  042%=      5-min Rain = 0
KCO2 151819Z 14007KT 32/17 A2998 RMK A01 T03160172  RH  042%=      5-min Rain = 0
KCO2 151820Z 14006KT 32/17 A2998 RMK A01 T03180171  RH  042%=      5-min Rain = 0
KCO2 151821Z 11007KT 32/17 A2998 RMK A01 T03180172  RH  042%=      5-min Rain = 0
KCO2 151822Z 09006KT 32/17 A2998 RMK A01 T03180174  RH  042%=      5-min Rain = 0
KCO2 151823Z 10004KT 32/17 A2998 RMK A01 T03170170  RH  041%=      5-min Rain = 0
KCO2 151824Z 11003KT 32/17 A2998 RMK A01 T03150173  RH  043%=      5-min Rain = 0
KCO2 151825Z 12004KT 32/17 A2998 RMK A01 T03160172  RH  042%=      5-min Rain = 0
KCO2 151826Z 12003KT 32/17 A2998 RMK A01 T03170171  RH  042%=      5-min Rain = 0
KCO2 151827Z 14003KT 32/17 A2997 RMK A01 T03170173  RH  042%=      5-min Rain = 0
KCO2 151828Z 17000KT 32/17 A2997 RMK A01 T03180173  RH  042%=      5-min Rain = 0
KCO2 151829Z 27000KT 32/17 A2997 RMK A01 T03190171  RH  041%=      5-min Rain = 0
KCO2 151830Z 06001KT 32/17 A2997 RMK A01 T03210173  RH  041%=      5-min Rain = 0
KCO2 151831Z 07008KT 32/17 A2997 RMK A01 T03210174  RH  042%=      5-min Rain = 0
KCO2 151832Z 08008KT 32/18 A2997 RMK A01 T03190175  RH  042%=      5-min Rain = 0
KCO2 151833Z 09005KT 32/18 A2997 RMK A01 T03170178  RH  044%=      5-min Rain = 0
KCO2 151834Z 07003KT 32/17 A2997 RMK A01 T03180173  RH  042%=      5-min Rain = 0
KCO2 151835Z 08003KT 32/18 A2997 RMK A01 T03170177  RH  043%=      5-min Rain = 0
KCO2 151836Z 03005KT 32/18 A2997 RMK A01 T03190175  RH  042%=      5-min Rain = 0
KCO2 151837Z 05005G10KT 32/17 A2997 RMK A01 T03190174  RH  042%=      5-min Rain = 0
KCO2 151838Z 05009KT 32/17 A2997 RMK A01 T03180173  RH  042%=      5-min Rain = 0
KCO2 151839Z 06010KT 32/17 A2997 RMK A01 T03200172  RH  041%=      5-min Rain = 0
KCO2 151840Z 08007KT 32/17 A2997 RMK A01 T03210174  RH  042%=      5-min Rain = 0
KCO2 151841Z 08008KT 32/18 A2997 RMK A01 T03220175  RH  041%=      5-min Rain = 0
KCO2 151842Z 02008KT 32/17 A2997 RMK A01 T03240174  RH  041%=      5-min Rain = 0
KCO2 151843Z 01007KT 33/17 A2997 RMK A01 T03260172  RH  040%=      5-min Rain = 0
KCO2 151844Z 07007KT 33/17 A2997 RMK A01 T03250174  RH  041%=      5-min Rain = 0
KCO2 151845Z 08006KT 33/17 A2997 RMK A01 T03250173  RH  041%=      5-min Rain = 0
KCO2 151846Z 07006G11KT 32/17 A2996 RMK A01 T03240173  RH  041%=      5-min Rain = 0
KCO2 151847Z 08008KT 32/17 A2996 RMK A01 T03220169  RH  040%=      5-min Rain = 0
KCO2 151848Z 09005KT 32/17 A2996 RMK A01 T03210172  RH  041%=      5-min Rain = 0
KCO2 151849Z 10007KT 32/17 A2996 RMK A01 T03230173  RH  041%=      5-min Rain = 0
KCO2 151850Z 12007KT 33/17 A2996 RMK A01 T03260172  RH  040%=      5-min Rain = 0
KCO2 151851Z 12005KT 33/17 A2996 RMK A01 T03270166  RH  038%=      5-min Rain = 0
KCO2 151852Z 09009KT 33/18 A2996 RMK A01 T03270175  RH  040%=      5-min Rain = 0
KCO2 151853Z 06008KT 33/17 A2996 RMK A01 T03280173  RH  040%=      5-min Rain = 0
KCO2 151854Z 07007KT 33/17 A2996 RMK A01 T03260172  RH  040%=      5-min Rain = 0
KCO2 151855Z 07007KT 32/17 A2996 RMK A01 T03220171  RH  041%=      5-min Rain = 0
KCO2 151856Z 08009KT 32/17 A2996 RMK A01 T03220171  RH  040%=      5-min Rain = 0
KCO2 151857Z 06008KT 32/17 A2997 RMK A01 T03230170  RH  040%=      5-min Rain = 0
KCO2 151858Z 01003KT 32/17 A2996 RMK A01 T03240168  RH  039%=      5-min Rain = 0
KCO2 151859Z 07007KT 32/17 A2996 RMK A01 T03240171  RH  040%=      5-min Rain = 0
KCO2 151900Z 09010KT 33/17 A2996 RMK A01 T03260171  RH  040%=      5-min Rain = 0
KCO2 151901Z 11010KT 33/17 A2996 RMK A01 T03270171  RH  039%=      5-min Rain = 0
KCO2 151902Z 10010KT 33/17 A2996 RMK A01 T03280171  RH  039%=      5-min Rain = 0
KCO2 151903Z 10008KT 33/17 A2996 RMK A01 T03280172  RH  039%=      5-min Rain = 0
KCO2 151904Z 08011KT 33/17 A2996 RMK A01 T03280171  RH  039%=      5-min Rain = 0
KCO2 151905Z 08010KT 33/17 A2996 RMK A01 T03270170  RH  039%=      5-min Rain = 0
KCO2 151906Z 08008KT 33/17 A2996 RMK A01 T03270167  RH  039%=      5-min Rain = 0
KCO2 151907Z 09004KT 33/17 A2996 RMK A01 T03270169  RH  039%=      5-min Rain = 0
KCO2 151908Z 08005KT 33/17 A2996 RMK A01 T03260167  RH  039%=      5-min Rain = 0
KCO2 151909Z 04002KT 33/17 A2996 RMK A01 T03260165  RH  038%=      5-min Rain = 0
KCO2 151910Z 02001KT 32/16 A2996 RMK A01 T03240164  RH  038%=      5-min Rain = 0
KCO2 151911Z 08006KT 33/17 A2996 RMK A01 T03260171  RH  040%=      5-min Rain = 0
KCO2 151912Z 09008KT 33/17 A2995 RMK A01 T03290170  RH  039%=      5-min Rain = 0
KCO2 151913Z 10010KT 33/17 A2995 RMK A01 T03310172  RH  039%=      5-min Rain = 0
KCO2 151914Z 11010G15KT 33/17 A2995 RMK A01 T03320169  RH  038%=      5-min Rain = 0
KCO2 151915Z 10005KT 33/17 A2995 RMK A01 T03310168  RH  038%=      5-min Rain = 0
KCO2 151916Z 08007KT 33/17 A2995 RMK A01 T03300169  RH  038%=      5-min Rain = 0
KCO2 151917Z 06005KT 33/17 A2995 RMK A01 T03260166  RH  038%=      5-min Rain = 0
KCO2 151918Z 07005KT 33/17 A2995 RMK A01 T03250167  RH  039%=      5-min Rain = 0
KCO2 151919Z 04004KT 32/17 A2995 RMK A01 T03220165  RH  039%=      5-min Rain = 0
KCO2 151920Z 08005KT 32/17 A2995 RMK A01 T03200165  RH  039%=      5-min Rain = 0
KCO2 151921Z 08005KT 32/16 A2995 RMK A01 T03200164  RH  039%=      5-min Rain = 0
KCO2 151922Z 07006KT 32/17 A2995 RMK A01 T03190166  RH  040%=      5-min Rain = 0
KCO2 151923Z 09003KT 32/17 A2995 RMK A01 T03200167  RH  040%=      5-min Rain = 0
KCO2 151924Z 10007KT 32/17 A2995 RMK A01 T03200168  RH  040%=      5-min Rain = 0
KCO2 151925Z 12008KT 32/17 A2995 RMK A01 T03210168  RH  040%=      5-min Rain = 0
KCO2 151926Z 13007KT 32/17 A2996 RMK A01 T03200165  RH  039%=      5-min Rain = 0
KCO2 151927Z 14003KT 32/17 A2996 RMK A01 T03170166  RH  040%=      5-min Rain = 0
KCO2 151928Z 22001KT 32/17 A2995 RMK A01 T03160166  RH  041%=      5-min Rain = 0
KCO2 151929Z 12001KT 32/17 A2995 RMK A01 T03150168  RH  041%=      5-min Rain = 0
KCO2 151930Z 16002KT 32/17 A2995 RMK A01 T03150167  RH  041%=      5-min Rain = 0
KCO2 151931Z 07008KT 32/17 A2995 RMK A01 T03160168  RH  041%=      5-min Rain = 0
KCO2 151932Z 06009KT 32/17 A2995 RMK A01 T03150169  RH  041%=      5-min Rain = 0
KCO2 151933Z 07010KT 32/17 A2995 RMK A01 T03150167  RH  041%=      5-min Rain = 0
KCO2 151934Z 06009KT 31/17 A2995 RMK A01 T03140166  RH  041%=      5-min Rain = 0
KCO2 151935Z 06008KT 31/17 A2995 RMK A01 T03130167  RH  041%=      5-min Rain = 0
KCO2 151936Z 07008KT 31/17 A2995 RMK A01 T03120166  RH  042%=      5-min Rain = 0
KCO2 151937Z 09006KT 31/17 A2995 RMK A01 T03110168  RH  042%=      5-min Rain = 0
KCO2 151938Z 07006KT 31/17 A2995 RMK A01 T03110168  RH  042%=      5-min Rain = 0
KCO2 151939Z 08007KT 31/17 A2995 RMK A01 T03120167  RH  042%=      5-min Rain = 0
KCO2 151940Z 10007KT 31/17 A2995 RMK A01 T03120166  RH  042%=      5-min Rain = 0
KCO2 151941Z 09008KT 31/17 A2995 RMK A01 T03120166  RH  042%=      5-min Rain = 0
KCO2 151942Z 10008KT 31/17 A2995 RMK A01 T03110169  RH  042%=      5-min Rain = 0
KCO2 151943Z 10009KT 31/17 A2995 RMK A01 T03110168  RH  042%=      5-min Rain = 0
KCO2 151944Z 10008KT 31/17 A2995 RMK A01 T03100168  RH  042%=      5-min Rain = 0
KCO2 151945Z 11007KT 31/17 A2995 RMK A01 T03100167  RH  042%=      5-min Rain = 0
KCO2 151946Z 11005KT 31/17 A2995 RMK A01 T03090169  RH  043%=      5-min Rain = 0
KCO2 151947Z 09004KT 31/17 A2995 RMK A01 T03090169  RH  043%=      5-min Rain = 0
KCO2 151948Z 09006KT 31/17 A2995 RMK A01 T03090169  RH  043%=      5-min Rain = 0
KCO2 151949Z 09006KT 31/17 A2995 RMK A01 T03090170  RH  044%=      5-min Rain = 0
KCO2 151950Z 09008KT 31/17 A2995 RMK A01 T03090169  RH  043%=      5-min Rain = 0
KCO2 151951Z 08008KT 31/17 A2995 RMK A01 T03100165  RH  042%=      5-min Rain = 0
KCO2 151952Z 09010KT 31/16 A2995 RMK A01 T03100164  RH  041%=      5-min Rain = 0
KCO2 151953Z 09010KT 31/17 A2995 RMK A01 T03100165  RH  042%=      5-min Rain = 0
KCO2 151954Z 10010KT 31/17 A2995 RMK A01 T03100165  RH  042%=      5-min Rain = 0
KCO2 151955Z 09009KT 31/17 A2995 RMK A01 T03100165  RH  042%=      5-min Rain = 0
KCO2 151956Z 09008KT 31/17 A2995 RMK A01 T03090165  RH  042%=      5-min Rain = 0
KCO2 151957Z 09007KT 31/17 A2995 RMK A01 T03090167  RH  042%=      5-min Rain = 0
KCO2 151958Z 09007KT 31/17 A2995 RMK A01 T03090168  RH  043%=      5-min Rain = 0
KCO2 151959Z 08005KT 31/17 A2995 RMK A01 T03100168  RH  043%=      5-min Rain = 0
KCO2 152000Z 09006KT 31/17 A2995 RMK A01 T03100168  RH  043%=      5-min Rain = 0
KCO2 152001Z 08006KT 31/17 A2995 RMK A01 T03090168  RH  043%=      5-min Rain = 0
KCO2 152002Z 09005KT 31/17 A2995 RMK A01 T03090169  RH  043%=      5-min Rain = 0
KCO2 152003Z 12004KT 31/17 A2995 RMK A01 T03080170  RH  043%=      5-min Rain = 0
KCO2 152004Z 13002KT 31/17 A2996 RMK A01 T03080171  RH  044%=      5-min Rain = 0
KCO2 152005Z 12003KT 31/17 A2996 RMK A01 T03080172  RH  044%=      5-min Rain = 0
KCO2 152006Z 14004KT 31/17 A2995 RMK A01 T03080170  RH  043%=      5-min Rain = 0
KCO2 152007Z 13005KT 31/17 A2995 RMK A01 T03080170  RH  043%=      5-min Rain = 0
KCO2 152008Z 14004KT 31/17 A2995 RMK A01 T03090169  RH  043%=      5-min Rain = 0
KCO2 152009Z 11004KT 31/17 A2995 RMK A01 T03090171  RH  044%=      5-min Rain = 0
KCO2 152010Z 10005KT 31/17 A2995 RMK A01 T03080172  RH  044%=      5-min Rain = 0
KCO2 152011Z 09007KT 31/17 A2994 RMK A01 T03080174  RH  045%=      5-min Rain = 0
KCO2 152012Z 09007KT 31/17 A2994 RMK A01 T03070174  RH  045%=      5-min Rain = 0
KCO2 152013Z 08008KT 31/17 A2994 RMK A01 T03070172  RH  044%=      5-min Rain = 0
KCO2 152014Z 07008KT 31/17 A2993 RMK A01 T03070166  RH  043%=      5-min Rain = 0
KCO2 152015Z 08008KT 31/16 A2993 RMK A01 T03070163  RH  042%=      5-min Rain = 0
KCO2 152016Z 09007KT 31/17 A2993 RMK A01 T03070167  RH  043%=      5-min Rain = 0
KCO2 152017Z 08009KT 31/17 A2992 RMK A01 T03070169  RH  044%=      5-min Rain = 0
KCO2 152018Z 06009KT 31/17 A2992 RMK A01 T03070169  RH  044%=      5-min Rain = 0
KCO2 152019Z 06009KT 31/17 A2992 RMK A01 T03070170  RH  044%=      5-min Rain = 0
KCO2 152020Z 05011KT 31/17 A2992 RMK A01 T03070170  RH  044%=      5-min Rain = 0
KCO2 152021Z 04014KT 31/17 A2992 RMK A01 T03070171  RH  044%=      5-min Rain = 0
KCO2 152022Z 05015KT 31/17 A2991 RMK A01 T03070171  RH  044%=      5-min Rain = 0
KCO2 152023Z 05012KT 31/17 A2991 RMK A01 T03070171  RH  044%=      5-min Rain = 0
KCO2 152024Z 05014KT 31/17 A2991 RMK A01 T03070173  RH  045%=      5-min Rain = 0
KCO2 152025Z 05013KT 31/17 A299 RMK A01 T03070166  RH  043%=      5-min Rain = 0
KCO2 152026Z 06009KT 31/16 A299 RMK A01 T03070158  RH  041%=      5-min Rain = 0
KCO2 152027Z 07007KT 31/17 A299 RMK A01 T03070170  RH  044%=      5-min Rain = 0
KCO2 152028Z 07010KT 31/17 A299 RMK A01 T03070172  RH  044%=      5-min Rain = 0
KCO2 152029Z 06010KT 31/17 A299 RMK A01 T03070167  RH  043%=      5-min Rain = 0
KCO2 152030Z 07010KT 31/16 A299 RMK A01 T03080160  RH  041%=      5-min Rain = 0
KCO2 152031Z 07008KT 31/15 A2991 RMK A01 T03080152  RH  039%=      5-min Rain = 0
KCO2 152032Z 08007KT 31/15 A2991 RMK A01 T03090148  RH  038%=      5-min Rain = 0
KCO2 152033Z 08006KT 31/15 A2991 RMK A01 T03090148  RH  038%=      5-min Rain = 0
KCO2 152034Z 11006KT 31/15 A2991 RMK A01 T03100146  RH  037%=      5-min Rain = 0
KCO2 152035Z 13007KT 31/14 A2991 RMK A01 T03100141  RH  036%=      5-min Rain = 0
KCO2 152036Z 16006KT 31/16 A2991 RMK A01 T03110155  RH  039%=      5-min Rain = 0
KCO2 152037Z 14005KT 31/16 A2991 RMK A01 T03110160  RH  040%=      5-min Rain = 0
KCO2 152038Z 12005KT 31/16 A2991 RMK A01 T03110158  RH  040%=      5-min Rain = 0
KCO2 152039Z 10007KT 31/16 A2991 RMK A01 T03110158  RH  040%=      5-min Rain = 0
KCO2 152040Z 11007KT 31/16 A2991 RMK A01 T03100163  RH  041%=      5-min Rain = 0
KCO2 152041Z 10006KT 31/16 A2991 RMK A01 T03090164  RH  042%=      5-min Rain = 0
KCO2 152042Z 10007KT 31/17 A299 RMK A01 T03090166  RH  042%=      5-min Rain = 0
KCO2 152043Z 11007KT 31/17 A2991 RMK A01 T03080166  RH  042%=      5-min Rain = 0
KCO2 152044Z 10007KT 31/17 A2991 RMK A01 T03080168  RH  043%=      5-min Rain = 0
KCO2 152045Z 10007KT 31/17 A2991 RMK A01 T03080170  RH  044%=      5-min Rain = 0
KCO2 152046Z 09007KT 31/17 A2991 RMK A01 T03080169  RH  043%=      5-min Rain = 0
KCO2 152047Z 09008KT 31/17 A2991 RMK A01 T03080170  RH  044%=      5-min Rain = 0
KCO2 152048Z 09008KT 31/17 A2991 RMK A01 T03080171  RH  044%=      5-min Rain = 0
KCO2 152049Z 10007KT 31/17 A2991 RMK A01 T03080170  RH  044%=      5-min Rain = 0
KCO2 152050Z 10007KT 31/17 A2991 RMK A01 T03080169  RH  043%=      5-min Rain = 0
KCO2 152051Z 08008KT 31/17 A2991 RMK A01 T03080166  RH  043%=      5-min Rain = 0
KCO2 152052Z 10010KT 31/17 A2991 RMK A01 T03080167  RH  043%=      5-min Rain = 0
KCO2 152053Z 12007KT 31/17 A2991 RMK A01 T03080167  RH  043%=      5-min Rain = 0
KCO2 152054Z 12007KT 31/17 A2991 RMK A01 T03080169  RH  043%=      5-min Rain = 0
KCO2 152055Z 11009KT 31/17 A2991 RMK A01 T03090168  RH  043%=      5-min Rain = 0
KCO2 152056Z 11009KT 31/17 A2991 RMK A01 T03100170  RH  043%=      5-min Rain = 0
KCO2 152057Z 11008KT 31/17 A2991 RMK A01 T03110173  RH  044%=      5-min Rain = 0
KCO2 152058Z 11008KT 31/18 A2991 RMK A01 T03110175  RH  044%=      5-min Rain = 0
KCO2 152059Z 11008KT 31/18 A2991 RMK A01 T03130175  RH  044%=      5-min Rain = 0
KCO2 152100Z 13007KT 31/18 A2991 RMK A01 T03140178  RH  044%=      5-min Rain = 0
KCO2 152101Z 12009KT 32/18 A2991 RMK A01 T03190180  RH  044%=      5-min Rain = 0
KCO2 152102Z 14008KT 32/18 A2991 RMK A01 T03210178  RH  043%=      5-min Rain = 0
KCO2 152103Z 13008KT 32/18 A2991 RMK A01 T03210178  RH  042%=      5-min Rain = 0
KCO2 152104Z 15009KT 32/18 A2991 RMK A01 T03200179  RH  043%=      5-min Rain = 0
KCO2 152105Z 15013KT 32/18 A2992 RMK A01 T03190178  RH  043%=      5-min Rain = 0
KCO2 152106Z 14011KT 32/18 A2992 RMK A01 T03170178  RH  044%=      5-min Rain = 0
KCO2 152107Z 14011KT 32/18 A2992 RMK A01 T03160179  RH  044%=      5-min Rain = 0
KCO2 152108Z 15009KT 32/18 A2991 RMK A01 T03150179  RH  044%=      5-min Rain = 0
KCO2 152109Z 15010KT 32/18 A2991 RMK A01 T03150180  RH  045%=      5-min Rain = 0
KCO2 152110Z 15011KT 32/18 A2991 RMK A01 T03150180  RH  045%=      5-min Rain = 0
KCO2 152111Z 14010KT 31/18 A2991 RMK A01 T03140180  RH  045%=      5-min Rain = 0
KCO2 152112Z 14010KT 32/18 A299 RMK A01 T03150180  RH  045%=      5-min Rain = 0
KCO2 152113Z 13010KT 32/18 A299 RMK A01 T03150182  RH  045%=      5-min Rain = 0
KCO2 152114Z 11011KT 32/18 A299 RMK A01 T03160182  RH  045%=      5-min Rain = 0
KCO2 152115Z 12009KT 32/19 A2989 RMK A01 T03190186  RH  045%=      5-min Rain = 0
KCO2 152116Z 11011KT 33/19 A2989 RMK A01 T03250186  RH  044%=      5-min Rain = 0
KCO2 152117Z 10010KT 33/19 A2988 RMK A01 T03290188  RH  043%=      5-min Rain = 0
KCO2 152118Z 11013KT 33/19 A2988 RMK A01 T03320186  RH  042%=      5-min Rain = 0
KCO2 152119Z 12012KT 33/18 A2987 RMK A01 T03330184  RH  041%=      5-min Rain = 0
KCO2 152120Z 11013KT 33/18 A2987 RMK A01 T03320184  RH  041%=      5-min Rain = 0
KCO2 152121Z 11011KT 33/19 A2987 RMK A01 T03330185  RH  042%=      5-min Rain = 0
KCO2 152122Z 12010KT 33/18 A2987 RMK A01 T03340184  RH  041%=      5-min Rain = 0
KCO2 152123Z 11012KT 34/18 A2986 RMK A01 T03350181  RH  040%=      5-min Rain = 0
KCO2 152124Z 10013KT 34/18 A2986 RMK A01 T03350181  RH  040%=      5-min Rain = 0
KCO2 152125Z 12014KT 33/18 A2986 RMK A01 T03340177  RH  039%=      5-min Rain = 0
KCO2 152126Z 12012KT 33/17 A2986 RMK A01 T03330173  RH  039%=      5-min Rain = 0
KCO2 152127Z 11015KT 33/17 A2986 RMK A01 T03320174  RH  039%=      5-min Rain = 0
KCO2 152128Z 11014KT 33/17 A2986 RMK A01 T03320168  RH  038%=      5-min Rain = 0
KCO2 152129Z 10012KT 33/17 A2986 RMK A01 T03310168  RH  038%=      5-min Rain = 0
KCO2 152130Z 10013KT 33/17 A2987 RMK A01 T03300167  RH  038%=      5-min Rain = 0
KCO2 152131Z 11012KT 33/17 A2987 RMK A01 T03310170  RH  038%=      5-min Rain = 0
KCO2 152132Z 11013KT 33/17 A2987 RMK A01 T03330171  RH  038%=      5-min Rain = 0
KCO2 152133Z 11014KT 33/17 A2987 RMK A01 T03340170  RH  038%=      5-min Rain = 0
KCO2 152134Z 11014KT 33/17 A2987 RMK A01 T03340173  RH  038%=      5-min Rain = 0
KCO2 152135Z 11012KT 33/18 A2987 RMK A01 T03340176  RH  039%=      5-min Rain = 0
KCO2 152136Z 11013KT 34/18 A2987 RMK A01 T03360177  RH  039%=      5-min Rain = 0
KCO2 152137Z 10016KT 33/17 A2987 RMK A01 T03340173  RH  038%=      5-min Rain = 0
KCO2 152138Z 10014KT 33/17 A2987 RMK A01 T03270168  RH  038%=      5-min Rain = 0
KCO2 152139Z 11014KT 32/17 A2987 RMK A01 T03230170  RH  040%=      5-min Rain = 0
KCO2 152140Z 11017KT 32/17 A2987 RMK A01 T03200171  RH  041%=      5-min Rain = 0
KCO2 152141Z 11014KT 32/17 A2987 RMK A01 T03180166  RH  040%=      5-min Rain = 0
KCO2 152142Z 10013KT 32/17 A2987 RMK A01 T03170171  RH  042%=      5-min Rain = 0
KCO2 152143Z 09015KT 32/17 A2987 RMK A01 T03160172  RH  042%=      5-min Rain = 0
KCO2 152144Z 10013KT 32/17 A2987 RMK A01 T03160171  RH  042%=      5-min Rain = 0
KCO2 152145Z 11011KT 32/17 A2988 RMK A01 T03150171  RH  042%=      5-min Rain = 0
KCO2 152146Z 11011KT 32/17 A2988 RMK A01 T03150170  RH  042%=      5-min Rain = 0
KCO2 152147Z 11013G18KT 32/17 A2988 RMK A01 T03150169  RH  042%=      5-min Rain = 0
KCO2 152148Z 11011KT 32/17 A2988 RMK A01 T03150170  RH  042%=      5-min Rain = 0
KCO2 152149Z 12012KT 31/17 A2988 RMK A01 T03140168  RH  042%=      5-min Rain = 0
KCO2 152150Z 12013KT 31/16 A2988 RMK A01 T03140164  RH  040%=      5-min Rain = 0
KCO2 152151Z 13011KT 32/17 A2988 RMK A01 T03150165  RH  041%=      5-min Rain = 0
KCO2 152152Z 13012KT 32/17 A2988 RMK A01 T03150166  RH  041%=      5-min Rain = 0
KCO2 152153Z 12013KT 31/16 A2988 RMK A01 T03140164  RH  040%=      5-min Rain = 0
KCO2 152154Z 12011KT 31/16 A2989 RMK A01 T03140164  RH  041%=      5-min Rain = 0
KCO2 152155Z 13011KT 31/17 A2989 RMK A01 T03140165  RH  041%=      5-min Rain = 0
KCO2 152156Z 13011KT 31/16 A2989 RMK A01 T03140164  RH  040%=      5-min Rain = 0
KCO2 152157Z 13011KT 32/16 A2989 RMK A01 T03150161  RH  039%=      5-min Rain = 0
KCO2 152158Z 13013KT 32/16 A2989 RMK A01 T03170158  RH  038%=      5-min Rain = 0
KCO2 152159Z 13014KT 32/16 A2989 RMK A01 T03190155  RH  037%=      5-min Rain = 0
KCO2 152200Z 12011KT 32/16 A2989 RMK A01 T03200155  RH  037%=      5-min Rain = 0
KCO2 152201Z 12009KT 32/16 A2989 RMK A01 T03200159  RH  038%=      5-min Rain = 0
KCO2 152202Z 13011KT 32/16 A2989 RMK A01 T03210159  RH  038%=      5-min Rain = 0
KCO2 152203Z 12012KT 32/16 A2989 RMK A01 T03200155  RH  037%=      5-min Rain = 0
KCO2 152204Z 12011KT 32/15 A2989 RMK A01 T03200153  RH  037%=      5-min Rain = 0
KCO2 152205Z 12009KT 32/15 A2989 RMK A01 T03190153  RH  037%=      5-min Rain = 0
KCO2 152206Z 12009KT 32/15 A2989 RMK A01 T03190152  RH  037%=      5-min Rain = 0
KCO2 152207Z 11010KT 32/15 A2989 RMK A01 T03190153  RH  037%=      5-min Rain = 0
KCO2 152208Z 11011KT 32/15 A2989 RMK A01 T03190151  RH  036%=      5-min Rain = 0
KCO2 152209Z 11010KT 32/16 A2988 RMK A01 T03180157  RH  038%=      5-min Rain = 0
KCO2 152210Z 10011G16KT 32/16 A2988 RMK A01 T03180156  RH  038%=      5-min Rain = 0
KCO2 152211Z 10012KT 32/15 A2988 RMK A01 T03170152  RH  037%=      5-min Rain = 0
KCO2 152212Z 11014KT 32/15 A2988 RMK A01 T03170149  RH  036%=      5-min Rain = 0
KCO2 152213Z 11013G18KT 32/15 A2988 RMK A01 T03170145  RH  035%=      5-min Rain = 0
KCO2 152214Z 11012KT 32/14 A2988 RMK A01 T03170143  RH  035%=      5-min Rain = 0
KCO2 152215Z 12013KT 32/14 A2988 RMK A01 T03170143  RH  035%=      5-min Rain = 0
KCO2 152216Z 12012KT 32/14 A2988 RMK A01 T03160142  RH  035%=      5-min Rain = 0
KCO2 152217Z 12012KT 32/14 A2988 RMK A01 T03160138  RH  034%=      5-min Rain = 0
KCO2 152218Z 13010KT 32/14 A2988 RMK A01 T03160138  RH  034%=      5-min Rain = 0
KCO2 152219Z 13011KT 32/14 A2988 RMK A01 T03170135  RH  033%=      5-min Rain = 0
KCO2 152220Z 13011KT 32/13 A2988 RMK A01 T03170131  RH  032%=      5-min Rain = 0
KCO2 152221Z 13009KT 32/13 A2988 RMK A01 T03170127  RH  031%=      5-min Rain = 0
KCO2 152222Z 13008KT 32/13 A2988 RMK A01 T03180127  RH  031%=      5-min Rain = 0
KCO2 152223Z 14009KT 32/12 A2988 RMK A01 T03180124  RH  031%=      5-min Rain = 0
KCO2 152224Z 13009KT 32/12 A2988 RMK A01 T03180124  RH  031%=      5-min Rain = 0
KCO2 152225Z 14009KT 32/12 A2988 RMK A01 T03180124  RH  031%=      5-min Rain = 0
KCO2 152226Z 16009KT 32/12 A2988 RMK A01 T03190120  RH  030%=      5-min Rain = 0
KCO2 152227Z 17010KT 32/11 A2988 RMK A01 T03190106  RH  027%=      5-min Rain = 0
KCO2 152228Z 16009KT 32/10 A2987 RMK A01 T03200102  RH  026%=      5-min Rain = 0
KCO2 152229Z 14009KT 32/11 A2987 RMK A01 T03210106  RH  027%=      5-min Rain = 0
KCO2 152230Z 15009KT 32/11 A2987 RMK A01 T03220107  RH  027%=      5-min Rain = 0
KCO2 152231Z 16009KT 33/11 A2987 RMK A01 T03260108  RH  026%=      5-min Rain = 0
KCO2 152232Z 16013KT 33/10 A2986 RMK A01 T03310102  RH  025%=      5-min Rain = 0
KCO2 152233Z 16014KT 34/10 A2986 RMK A01 T03350097  RH  023%=      5-min Rain = 0
KCO2 152234Z 16011KT 34/10 A2986 RMK A01 T03360097  RH  023%=      5-min Rain = 0
KCO2 152235Z 15012KT 34/10 A2985 RMK A01 T03380097  RH  023%=      5-min Rain = 0
KCO2 152236Z 15015KT 34/09 A2985 RMK A01 T03400094  RH  022%=      5-min Rain = 0
KCO2 152237Z 15012KT 34/09 A2985 RMK A01 T03390094  RH  022%=      5-min Rain = 0
KCO2 152238Z 16014KT 34/10 A2985 RMK A01 T03400095  RH  022%=      5-min Rain = 0
KCO2 152239Z 17014KT 34/10 A2985 RMK A01 T03400099  RH  023%=      5-min Rain = 0
KCO2 152240Z 17014KT 34/10 A2985 RMK A01 T03390103  RH  024%=      5-min Rain = 0
KCO2 152241Z 17013KT 34/11 A2985 RMK A01 T03390106  RH  024%=      5-min Rain = 0
KCO2 152242Z 17012KT 34/11 A2985 RMK A01 T03380106  RH  024%=      5-min Rain = 0
KCO2 152243Z 16013KT 34/10 A2984 RMK A01 T03350104  RH  024%=      5-min Rain = 0
KCO2 152244Z 15013KT 33/10 A2984 RMK A01 T03330102  RH  024%=      5-min Rain = 0
KCO2 152245Z 15013KT 33/10 A2984 RMK A01 T03320095  RH  023%=      5-min Rain = 0
KCO2 152246Z 15010KT 33/10 A2983 RMK A01 T03330098  RH  024%=      5-min Rain = 0
KCO2 152247Z 13012KT 34/10 A2983 RMK A01 T03360101  RH  024%=      5-min Rain = 0
KCO2 152248Z 13015KT 34/10 A2983 RMK A01 T03390100  RH  023%=      5-min Rain = 0
KCO2 152249Z 14013KT 34/10 A2983 RMK A01 T03380102  RH  024%=      5-min Rain = 0
KCO2 152250Z 14014KT 34/10 A2983 RMK A01 T03360100  RH  024%=      5-min Rain = 0
KCO2 152251Z 13011KT 33/10 A2983 RMK A01 T03340098  RH  024%=      5-min Rain = 0
KCO2 152252Z 13012KT 33/09 A2983 RMK A01 T03310094  RH  023%=      5-min Rain = 0
KCO2 152253Z 12014KT 33/09 A2983 RMK A01 T03280094  RH  024%=      5-min Rain = 0
KCO2 152254Z 12013KT 33/09 A2984 RMK A01 T03250091  RH  024%=      5-min Rain = 0
KCO2 152255Z 12010KT 32/09 A2984 RMK A01 T03220090  RH  024%=      5-min Rain = 0
KCO2 152256Z 12011KT 32/09 A2985 RMK A01 T03200089  RH  024%=      5-min Rain = 0
KCO2 152257Z 12011KT 32/09 A2985 RMK A01 T03190089  RH  024%=      5-min Rain = 0
KCO2 152258Z 13011KT 32/09 A2985 RMK A01 T03190085  RH  023%=      5-min Rain = 0
KCO2 152259Z 13008KT 32/08 A2986 RMK A01 T03180082  RH  023%=      5-min Rain = 0
KCO2 152300Z 14009KT 32/08 A2986 RMK A01 T03180084  RH  023%=      5-min Rain = 0
KCO2 152301Z 13006KT 32/09 A2987 RMK A01 T03180086  RH  024%=      5-min Rain = 0
KCO2 152302Z 12008KT 32/09 A2987 RMK A01 T03180087  RH  024%=      5-min Rain = 0
KCO2 152303Z 12007KT 32/09 A2987 RMK A01 T03170086  RH  024%=      5-min Rain = 0
KCO2 152304Z 12010KT 32/09 A2987 RMK A01 T03170085  RH  024%=      5-min Rain = 0
KCO2 152305Z 12009KT 32/09 A2987 RMK A01 T03170087  RH  024%=      5-min Rain = 0
KCO2 152306Z 12009KT 32/09 A2987 RMK A01 T03160088  RH  024%=      5-min Rain = 0
KCO2 152307Z 11007KT 32/09 A2987 RMK A01 T03160089  RH  025%=      5-min Rain = 0
KCO2 152308Z 11008KT 32/09 A2987 RMK A01 T03150092  RH  025%=      5-min Rain = 0
KCO2 152309Z 11008KT 31/10 A2987 RMK A01 T03140095  RH  026%=      5-min Rain = 0
KCO2 152310Z 11009KT 31/10 A2987 RMK A01 T03140097  RH  026%=      5-min Rain = 0
KCO2 152311Z 11007KT 31/10 A2987 RMK A01 T03130098  RH  026%=      5-min Rain = 0
KCO2 152312Z 12006KT 31/10 A2987 RMK A01 T03130099  RH  027%=      5-min Rain = 0
KCO2 152313Z 12006KT 31/10 A2987 RMK A01 T03130099  RH  027%=      5-min Rain = 0
KCO2 152314Z 10004KT 31/10 A2988 RMK A01 T03130101  RH  027%=      5-min Rain = 0
KCO2 152315Z 08004KT 31/10 A2988 RMK A01 T03120102  RH  027%=      5-min Rain = 0
KCO2 152316Z 05005KT 31/10 A2988 RMK A01 T03120102  RH  027%=      5-min Rain = 0
KCO2 152317Z 03005KT 31/10 A2989 RMK A01 T03120103  RH  027%=      5-min Rain = 0
KCO2 152318Z 01008KT 31/10 A299 RMK A01 T03120104  RH  028%=      5-min Rain = 0
KCO2 152319Z 34016G24KT 31/11 A299 RMK A01 T03120109  RH  029%=      5-min Rain = 0
KCO2 152320Z 34022G27KT 30/14 A2991 RMK A01 T03020142  RH  038%=      5-min Rain = 0
KCO2 152321Z 36023G28KT 28/15 A2991 RMK A01 T02840147  RH  043%=      5-min Rain = 0
KCO2 152322Z 00023KT 28/15 A2991 RMK A01 T02760148  RH  046%=      5-min Rain = 0
KCO2 152323Z 01019KT 27/15 A2991 RMK A01 T02700150  RH  048%=      5-min Rain = 0
KCO2 152324Z 36015G24KT 27/15 A299 RMK A01 T02680148  RH  048%=      5-min Rain = 0
KCO2 152325Z 35018G28KT 27/14 A299 RMK A01 T02700143  RH  046%=      5-min Rain = 0
KCO2 152326Z 01025G32KT 28/13 A299 RMK A01 T02780131  RH  040%=      5-min Rain = 0
KCO2 152327Z 36016KT 29/13 A2991 RMK A01 T02900127  RH  037%=      5-min Rain = 0
KCO2 152328Z 02015G20KT 30/14 A299 RMK A01 T02960135  RH  037%=      5-min Rain = 0
KCO2 152329Z 03016KT 29/15 A299 RMK A01 T02910150  RH  042%=      5-min Rain = 0
KCO2 152330Z 03015KT 28/15 A2991 RMK A01 T02820149  RH  044%=      5-min Rain = 0
KCO2 152331Z 01016KT 28/15 A2991 RMK A01 T02770150  RH  046%=      5-min Rain = 0
KCO2 152332Z 36015KT 28/15 A2992 RMK A01 T02760149  RH  046%=      5-min Rain = 0
KCO2 152333Z 34018KT 28/15 A2992 RMK A01 T02780149  RH  045%=      5-min Rain = 0
KCO2 152334Z 33022G29KT 28/15 A2992 RMK A01 T02790151  RH  046%=      5-min Rain = 0
KCO2 152335Z 34020G27KT 27/15 A2992 RMK A01 T02680153  RH  049%=      5-min Rain = 0
KCO2 152336Z 34030G40KT 25/14 A2992 RMK A01 T02540143  RH  050%=      5-min Rain = 0
KCO2 152337Z 34030G36KT 25/14 A2992 RMK A01 T02460135  RH  050%=      5-min Rain = 0
KCO2 152338Z 35031G38KT 24/13 A2992 RMK A01 T02430134  RH  051%=      5-min Rain = 0
KCO2 152339Z 00030KT 25/14 A2992 RMK A01 T02490142  RH  051%=      5-min Rain = 0
KCO2 152340Z 01030G35KT 26/14 A2991 RMK A01 T02560142  RH  049%=      5-min Rain = 0
KCO2 152341Z 01030G36KT 26/14 A2991 RMK A01 T02580139  RH  048%=      5-min Rain = 0
KCO2 152342Z 02030G36KT 26/14 A299 RMK A01 T02590138  RH  047%=      5-min Rain = 0
KCO2 152343Z 02031G38KT 26/14 A299 RMK A01 T02600139  RH  047%=      5-min Rain = 0
KCO2 152344Z 02027G35KT 26/14 A299 RMK A01 T02600140  RH  047%=      5-min Rain = 0
KCO2 152345Z 03026KT 26/14 A2989 RMK A01 T02610141  RH  048%=      5-min Rain = 0
KCO2 152346Z 03026G34KT 26/14 A2989 RMK A01 T02580142  RH  049%=      5-min Rain = 0
KCO2 152347Z 03025KT 26/14 A2988 RMK A01 T02570143  RH  049%=      5-min Rain = 0
KCO2 152348Z 03025G31KT 26/14 A2988 RMK A01 T02570143  RH  049%=      5-min Rain = 0
KCO2 152349Z 03022G29KT 26/14 A2988 RMK A01 T02570143  RH  049%=      5-min Rain = 0
KCO2 152350Z 03023KT 26/14 A2988 RMK A01 T02590140  RH  048%=      5-min Rain = 0
KCO2 152351Z 03022KT 26/14 A2988 RMK A01 T02600141  RH  048%=      5-min Rain = 0
KCO2 152352Z 03021G27KT 26/14 A2988 RMK A01 T02620140  RH  047%=      5-min Rain = 0
KCO2 152353Z 03017KT 27/14 A2988 RMK A01 T02650141  RH  046%=      5-min Rain = 0
KCO2 152354Z 03018G23KT 27/14 A2988 RMK A01 T02690140  RH  045%=      5-min Rain = 0
KCO2 152355Z 03018KT 27/14 A2988 RMK A01 T02710142  RH  045%=      5-min Rain = 0
KCO2 152356Z 03020KT 27/14 A2989 RMK A01 T02710142  RH  045%=      5-min Rain = 0
KCO2 152357Z 02017G22KT 27/14 A2988 RMK A01 T02680142  RH  046%=      5-min Rain = 0
KCO2 152358Z 02019G24KT 27/14 A2989 RMK A01 T02680141  RH  046%=      5-min Rain = 0
KCO2 152359Z 02016G23KT 27/14 A2989 RMK A01 T02670141  RH  046%=      5-min Rain = 0
KCO2 160000Z 02018KT 27/14 A2989 RMK A01 T02660141  RH  046%=      5-min Rain = 0
KCO2 160001Z 02017G22KT 26/14 A2989 RMK A01 T02640141  RH  047%=      5-min Rain = 0
KCO2 160002Z 01016KT 26/14 A2989 RMK A01 T02630140  RH  047%=      5-min Rain = 0
KCO2 160003Z 01013G18KT 26/14 A2988 RMK A01 T02620140  RH  047%=      5-min Rain = 0
KCO2 160004Z 02012KT 26/14 A2988 RMK A01 T02620139  RH  047%=      5-min Rain = 0
KCO2 160005Z 02012KT 26/14 A2988 RMK A01 T02610135  RH  046%=      5-min Rain = 0
KCO2 160006Z 02012KT 26/13 A2988 RMK A01 T02620133  RH  045%=      5-min Rain = 0
KCO2 160007Z 02012KT 26/13 A2988 RMK A01 T02630133  RH  045%=      5-min Rain = 0
KCO2 160008Z 02012KT 26/13 A2988 RMK A01 T02630133  RH  045%=      5-min Rain = 0
KCO2 160009Z 02010G15KT 26/13 A2988 RMK A01 T02630133  RH  045%=      5-min Rain = 0
KCO2 160010Z 02009KT 26/13 A2988 RMK A01 T02630134  RH  045%=      5-min Rain = 0
KCO2 160011Z 02011KT 26/13 A2988 RMK A01 T02630133  RH  045%=      5-min Rain = 0
KCO2 160012Z 03010KT 26/13 A2988 RMK A01 T02630133  RH  044%=      5-min Rain = 0
KCO2 160013Z 03010KT 27/13 A2988 RMK A01 T02650134  RH  044%=      5-min Rain = 0
KCO2 160014Z 03011KT 27/14 A2987 RMK A01 T02660135  RH  045%=      5-min Rain = 0
KCO2 160015Z 04012KT 27/14 A2987 RMK A01 T02660135  RH  044%=      5-min Rain = 0
KCO2 160016Z 04011KT 27/14 A2987 RMK A01 T02670135  RH  044%=      5-min Rain = 0
KCO2 160017Z 04013KT 27/14 A2987 RMK A01 T02670136  RH  044%=      5-min Rain = 0
KCO2 160018Z 04015KT 27/13 A2987 RMK A01 T02660134  RH  044%=      5-min Rain = 0
KCO2 160019Z 05016KT 27/13 A2987 RMK A01 T02660132  RH  043%=      5-min Rain = 0
KCO2 160020Z 05015KT 27/13 A2987 RMK A01 T02660131  RH  043%=      5-min Rain = 0
KCO2 160021Z 05015KT 27/13 A2987 RMK A01 T02660131  RH  043%=      5-min Rain = 0
KCO2 160022Z 05014KT 27/13 A2987 RMK A01 T02650131  RH  043%=      5-min Rain = 0
KCO2 160023Z 05013KT 27/13 A2987 RMK A01 T02650132  RH  044%=      5-min Rain = 0
KCO2 160024Z 05013KT 26/13 A2987 RMK A01 T02640133  RH  044%=      5-min Rain = 0
KCO2 160025Z 05015KT 26/14 A2988 RMK A01 T02630135  RH  045%=      5-min Rain = 0
KCO2 160026Z 06015KT 26/14 A2988 RMK A01 T02620138  RH  046%=      5-min Rain = 0
KCO2 160027Z 06014KT 26/14 A2988 RMK A01 T02610141  RH  047%=      5-min Rain = 0
KCO2 160028Z 06016KT 26/14 A2988 RMK A01 T02590144  RH  049%=      5-min Rain = 0
KCO2 160029Z 05017KT 26/15 A2988 RMK A01 T02570147  RH  051%=      5-min Rain = 0
KCO2 160030Z 05017G23KT 26/15 A2988 RMK A01 T02550149  RH  052%=      5-min Rain = 0
KCO2 160031Z 05017KT 25/15 A2988 RMK A01 T02540149  RH  052%=      5-min Rain = 0
KCO2 160032Z 05018KT 25/15 A2988 RMK A01 T02520148  RH  052%=      5-min Rain = 0
KCO2 160033Z 06016KT 25/15 A2989 RMK A01 T02520145  RH  052%=      5-min Rain = 0
KCO2 160034Z 05019KT 25/14 A2989 RMK A01 T02510140  RH  050%=      5-min Rain = 0
KCO2 160035Z 05017KT 25/14 A2989 RMK A01 T02500138  RH  050%=      5-min Rain = 0
KCO2 160036Z 05012KT 25/14 A2988 RMK A01 T02490140  RH  051%=      5-min Rain = 0
KCO2 160037Z 04012G17KT 25/14 A2988 RMK A01 T02480141  RH  051%=      5-min Rain = 0
KCO2 160038Z 05013KT 25/14 A2988 RMK A01 T02480141  RH  051%=      5-min Rain = 0
KCO2 160039Z 05013KT 25/14 A2988 RMK A01 T02470139  RH  051%=      5-min Rain = 0
KCO2 160040Z 05014KT 25/14 A2988 RMK A01 T02470136  RH  050%=      5-min Rain = 0
KCO2 160041Z 05012KT 25/14 A2988 RMK A01 T02470136  RH  050%=      5-min Rain = 0
KCO2 160042Z 05014KT 25/14 A2988 RMK A01 T02470135  RH  049%=      5-min Rain = 0
KCO2 160043Z 05014KT 25/13 A2988 RMK A01 T02470133  RH  049%=      5-min Rain = 0
KCO2 160044Z 05013KT 25/13 A2989 RMK A01 T02480132  RH  048%=      5-min Rain = 0
KCO2 160045Z 05014KT 25/13 A2989 RMK A01 T02490132  RH  048%=      5-min Rain = 0
KCO2 160046Z 06012KT 25/13 A2989 RMK A01 T02490133  RH  048%=      5-min Rain = 0
KCO2 160047Z 06012KT 25/13 A2989 RMK A01 T02500134  RH  049%=      5-min Rain = 0
KCO2 160048Z 06012KT 25/14 A2989 RMK A01 T02510135  RH  049%=      5-min Rain = 0
KCO2 160049Z 06011G16KT 25/14 A2989 RMK A01 T02500135  RH  049%=      5-min Rain = 0
KCO2 160050Z 06012KT 25/14 A299 RMK A01 T02500136  RH  049%=      5-min Rain = 0
KCO2 160051Z 07013KT 25/14 A299 RMK A01 T02500136  RH  049%=      5-min Rain = 0
KCO2 160052Z 06016KT 25/14 A299 RMK A01 T02500136  RH  049%=      5-min Rain = 0
KCO2 160053Z 06015KT 25/14 A2991 RMK A01 T02490135  RH  049%=      5-min Rain = 0
KCO2 160054Z 06012KT 25/14 A2991 RMK A01 T02480136  RH  050%=      5-min Rain = 0
KCO2 160055Z 07012KT 25/14 A2991 RMK A01 T02470136  RH  050%=      5-min Rain = 0
KCO2 160056Z 07010KT 25/14 A2991 RMK A01 T02470136  RH  050%=      5-min Rain = 0
KCO2 160057Z 07011KT 25/14 A2991 RMK A01 T02460135  RH  050%=      5-min Rain = 0
KCO2 160058Z 07011KT 25/14 A2991 RMK A01 T02460135  RH  050%=      5-min Rain = 0
KCO2 160059Z 07011KT 25/13 A2991 RMK A01 T02460134  RH  050%=      5-min Rain = 0
KCO2 160100Z 06012KT 25/13 A2991 RMK A01 T02460133  RH  049%=      5-min Rain = 0
KCO2 160101Z 07011KT 25/13 A2991 RMK A01 T02460131  RH  049%=      5-min Rain = 0
KCO2 160102Z 07013KT 25/13 A2991 RMK A01 T02460131  RH  049%=      5-min Rain = 0
KCO2 160103Z 07011KT 25/13 A2991 RMK A01 T02450131  RH  049%=      5-min Rain = 0
KCO2 160104Z 07013KT 25/13 A2991 RMK A01 T02450131  RH  049%=      5-min Rain = 0
KCO2 160105Z 07011KT 24/13 A2991 RMK A01 T02440131  RH  049%=      5-min Rain = 0
KCO2 160106Z 08013KT 24/13 A2991 RMK A01 T02440131  RH  049%=      5-min Rain = 0
KCO2 160107Z 08011KT 24/13 A2991 RMK A01 T02440130  RH  049%=      5-min Rain = 0
KCO2 160108Z 08012KT 24/13 A2991 RMK A01 T02440130  RH  049%=      5-min Rain = 0
KCO2 160109Z 08011KT 24/13 A2991 RMK A01 T02440130  RH  049%=      5-min Rain = 0
KCO2 160110Z 08010KT 24/13 A2991 RMK A01 T02440129  RH  049%=      5-min Rain = 0
KCO2 160111Z 09011KT 24/13 A2991 RMK A01 T02440130  RH  049%=      5-min Rain = 0
KCO2 160112Z 08012KT 24/13 A2991 RMK A01 T02440128  RH  048%=      5-min Rain = 0
KCO2 160113Z 08012KT 24/13 A2991 RMK A01 T02440128  RH  048%=      5-min Rain = 0
KCO2 160114Z 08013KT 24/13 A2991 RMK A01 T02440127  RH  048%=      5-min Rain = 0
KCO2 160115Z 08012KT 24/13 A2991 RMK A01 T02440126  RH  048%=      5-min Rain = 0
KCO2 160116Z 09011KT 25/13 A2991 RMK A01 T02450127  RH  048%=      5-min Rain = 0
KCO2 160117Z 08011KT 25/13 A2991 RMK A01 T02450126  RH  047%=      5-min Rain = 0
KCO2 160118Z 08011KT 25/13 A2991 RMK A01 T02450125  RH  047%=      5-min Rain = 0
KCO2 160119Z 08012KT 25/13 A2991 RMK A01 T02450125  RH  047%=      5-min Rain = 0
KCO2 160120Z 08011KT 25/12 A2991 RMK A01 T02450124  RH  047%=      5-min Rain = 0
KCO2 160121Z 08010KT 25/12 A2991 RMK A01 T02450124  RH  047%=      5-min Rain = 0
KCO2 160122Z 08010KT 25/12 A2991 RMK A01 T02450124  RH  047%=      5-min Rain = 0
KCO2 160123Z 08009KT 25/12 A2991 RMK A01 T02450124  RH  047%=      5-min Rain = 0
KCO2 160124Z 08011KT 25/12 A2991 RMK A01 T02450124  RH  047%=      5-min Rain = 0
KCO2 160125Z 08010KT 24/12 A2991 RMK A01 T02440124  RH  047%=      5-min Rain = 0
KCO2 160126Z 08009KT 25/12 A2991 RMK A01 T02450124  RH  047%=      5-min Rain = 0
KCO2 160127Z 08011KT 24/12 A2991 RMK A01 T02440123  RH  047%=      5-min Rain = 0
KCO2 160128Z 08011KT 24/12 A2991 RMK A01 T02440122  RH  046%=      5-min Rain = 0
KCO2 160129Z 08010KT 24/12 A2991 RMK A01 T02440122  RH  046%=      5-min Rain = 0
KCO2 160130Z 08010KT 24/12 A2991 RMK A01 T02440122  RH  046%=      5-min Rain = 0
KCO2 160131Z 08009KT 24/12 A2991 RMK A01 T02440122  RH  046%=      5-min Rain = 0
KCO2 160132Z 08009KT 24/12 A2991 RMK A01 T02440121  RH  046%=      5-min Rain = 0
KCO2 160133Z 09009KT 24/12 A2991 RMK A01 T02440121  RH  046%=      5-min Rain = 0
KCO2 160134Z 08009KT 24/12 A2991 RMK A01 T02440121  RH  046%=      5-min Rain = 0
KCO2 160135Z 08010KT 24/12 A2991 RMK A01 T02440120  RH  046%=      5-min Rain = 0
KCO2 160136Z 09009KT 24/12 A2991 RMK A01 T02440120  RH  046%=      5-min Rain = 0
KCO2 160137Z 09010KT 24/12 A2991 RMK A01 T02430120  RH  046%=      5-min Rain = 0
KCO2 160138Z 09009KT 24/12 A2991 RMK A01 T02430119  RH  046%=      5-min Rain = 0
KCO2 160139Z 09009KT 24/12 A2991 RMK A01 T02440120  RH  046%=      5-min Rain = 0
KCO2 160140Z 09009KT 24/12 A2991 RMK A01 T02430119  RH  046%=      5-min Rain = 0
KCO2 160141Z 09010KT 24/12 A2991 RMK A01 T02430119  RH  046%=      5-min Rain = 0
KCO2 160142Z 09009KT 24/12 A2991 RMK A01 T02420119  RH  046%=      5-min Rain = 0
KCO2 160143Z 09010KT 24/12 A2991 RMK A01 T02420118  RH  046%=      5-min Rain = 0
KCO2 160144Z 09010KT 24/12 A2991 RMK A01 T02420117  RH  045%=      5-min Rain = 0
KCO2 160145Z 09011KT 24/12 A2991 RMK A01 T02420116  RH  045%=      5-min Rain = 0
KCO2 160146Z 09010KT 24/11 A2991 RMK A01 T02420114  RH  045%=      5-min Rain = 0
KCO2 160147Z 09010KT 24/11 A2991 RMK A01 T02430114  RH  044%=      5-min Rain = 0
KCO2 160148Z 09009KT 24/11 A2991 RMK A01 T02430114  RH  044%=      5-min Rain = 0
KCO2 160149Z 09009KT 24/11 A2991 RMK A01 T02430113  RH  044%=      5-min Rain = 0
KCO2 160150Z 09010KT 24/11 A2991 RMK A01 T02430113  RH  044%=      5-min Rain = 0
KCO2 160151Z 09010KT 24/11 A2991 RMK A01 T02430113  RH  044%=      5-min Rain = 0
KCO2 160152Z 09009KT 24/11 A2991 RMK A01 T02430112  RH  044%=      5-min Rain = 0
KCO2 160153Z 09010KT 24/11 A2991 RMK A01 T02430112  RH  044%=      5-min Rain = 0
KCO2 160154Z 09009KT 24/11 A2991 RMK A01 T02430112  RH  044%=      5-min Rain = 0
KCO2 160155Z 09009KT 24/11 A2991 RMK A01 T02430112  RH  044%=      5-min Rain = 0
KCO2 160156Z 11007KT 24/11 A2991 RMK A01 T02430111  RH  044%=      5-min Rain = 0
KCO2 160157Z 14008KT 24/11 A2991 RMK A01 T02420112  RH  044%=      5-min Rain = 0
KCO2 160158Z 17009KT 24/11 A2992 RMK A01 T02410112  RH  044%=      5-min Rain = 0
KCO2 160159Z 18010KT 24/11 A2992 RMK A01 T02400113  RH  045%=      5-min Rain = 0
KCO2 160200Z 17010KT 24/11 A2992 RMK A01 T02390112  RH  045%=      5-min Rain = 0
KCO2 160201Z 16009KT 24/11 A2991 RMK A01 T02390111  RH  045%=      5-min Rain = 0
KCO2 160202Z 16009KT 24/11 A2992 RMK A01 T02400112  RH  045%=      5-min Rain = 0
KCO2 160203Z 17010KT 24/11 A2992 RMK A01 T02400112  RH  045%=      5-min Rain = 0
KCO2 160204Z 16010KT 24/11 A2992 RMK A01 T02400113  RH  045%=      5-min Rain = 0
KCO2 160205Z 15010KT 24/11 A2992 RMK A01 T02410113  RH  045%=      5-min Rain = 0
KCO2 160206Z 15012KT 24/11 A2992 RMK A01 T02420113  RH  044%=      5-min Rain = 0
KCO2 160207Z 14015G20KT 24/11 A2993 RMK A01 T02420113  RH  044%=      5-min Rain = 0
KCO2 160208Z 14015G20KT 24/11 A2993 RMK A01 T02430114  RH  044%=      5-min Rain = 0
KCO2 160209Z 14018KT 24/12 A2993 RMK A01 T02440115  RH  044%=      5-min Rain = 0
KCO2 160210Z 13014KT 24/12 A2993 RMK A01 T02440116  RH  045%=      5-min Rain = 0
KCO2 160211Z 12013KT 24/11 A2993 RMK A01 T02440114  RH  044%=      5-min Rain = 0
KCO2 160212Z 13014KT 25/11 A2993 RMK A01 T02450113  RH  044%=      5-min Rain = 0
KCO2 160213Z 13016G25KT 25/11 A2993 RMK A01 T02460111  RH  043%=      5-min Rain = 0
KCO2 160214Z 12017KT 25/11 A2994 RMK A01 T02460110  RH  042%=      5-min Rain = 0
KCO2 160215Z 13018G23KT 25/11 A2994 RMK A01 T02470111  RH  042%=      5-min Rain = 0
KCO2 160216Z 13018KT 25/11 A2994 RMK A01 T02460112  RH  043%=      5-min Rain = 0
KCO2 160217Z 14013KT 25/11 A2994 RMK A01 T02460113  RH  043%=      5-min Rain = 0
KCO2 160218Z 14015KT 25/11 A2994 RMK A01 T02450113  RH  043%=      5-min Rain = 0
KCO2 160219Z 13013KT 24/11 A2994 RMK A01 T02440112  RH  044%=      5-min Rain = 0
KCO2 160220Z 13012KT 24/11 A2994 RMK A01 T02440113  RH  044%=      5-min Rain = 0
KCO2 160221Z 13012KT 24/11 A2994 RMK A01 T02440113  RH  044%=      5-min Rain = 0
KCO2 160222Z 12013KT 24/11 A2994 RMK A01 T02430114  RH  044%=      5-min Rain = 0
KCO2 160223Z 13010G17KT 24/12 A2993 RMK A01 T02420115  RH  045%=      5-min Rain = 0
KCO2 160224Z 12013KT 24/12 A2993 RMK A01 T02420116  RH  045%=      5-min Rain = 0
KCO2 160225Z 11013KT 24/12 A2993 RMK A01 T02410117  RH  046%=      5-min Rain = 0
KCO2 160226Z 12013KT 24/12 A2994 RMK A01 T02400118  RH  046%=      5-min Rain = 0
KCO2 160227Z 12011KT 24/12 A2994 RMK A01 T02390119  RH  047%=      5-min Rain = 0
KCO2 160228Z 12014KT 24/12 A2994 RMK A01 T02390120  RH  047%=      5-min Rain = 0
KCO2 160229Z 12012KT 24/12 A2994 RMK A01 T02380121  RH  048%=      5-min Rain = 0
KCO2 160230Z 12011KT 24/12 A2994 RMK A01 T02370122  RH  048%=      5-min Rain = 0
KCO2 160231Z 12014KT 24/12 A2994 RMK A01 T02360124  RH  049%=      5-min Rain = 0
KCO2 160232Z 12013KT 24/13 A2994 RMK A01 T02360126  RH  050%=      5-min Rain = 0
KCO2 160233Z 12014KT 24/13 A2994 RMK A01 T02360129  RH  051%=      5-min Rain = 0
KCO2 160234Z 12015KT 24/13 A2994 RMK A01 T02360132  RH  052%=      5-min Rain = 0
KCO2 160235Z 12017G22KT 24/14 A2994 RMK A01 T02360140  RH  055%=      5-min Rain = 0
KCO2 160236Z 12014KT 24/15 A2994 RMK A01 T02360147  RH  057%=      5-min Rain = 0
KCO2 160237Z 12016KT 24/15 A2994 RMK A01 T02360148  RH  058%=      5-min Rain = 0
KCO2 160238Z 12016KT 24/15 A2994 RMK A01 T02360154  RH  060%=      5-min Rain = 0
KCO2 160239Z 11014G19KT 24/16 A2994 RMK A01 T02360157  RH  061%=      5-min Rain = 0
KCO2 160240Z 11014KT 24/16 A2994 RMK A01 T02350158  RH  062%=      5-min Rain = 0
KCO2 160241Z 11017KT 24/16 A2994 RMK A01 T02350160  RH  063%=      5-min Rain = 0
KCO2 160242Z 12014KT 24/16 A2994 RMK A01 T02350161  RH  063%=      5-min Rain = 0
KCO2 160243Z 12016KT 23/16 A2994 RMK A01 T02340163  RH  064%=      5-min Rain = 0
KCO2 160244Z 12013KT 23/16 A2994 RMK A01 T02340164  RH  065%=      5-min Rain = 0
KCO2 160245Z 12014KT 23/17 A2995 RMK A01 T02340165  RH  065%=      5-min Rain = 0
KCO2 160246Z 12013KT 23/17 A2995 RMK A01 T02330166  RH  066%=      5-min Rain = 0
KCO2 160247Z 12015KT 23/17 A2995 RMK A01 T02330167  RH  067%=      5-min Rain = 0
KCO2 160248Z 12012KT 23/17 A2995 RMK A01 T02330168  RH  067%=      5-min Rain = 0
KCO2 160249Z 12012G17KT 23/17 A2995 RMK A01 T02330168  RH  067%=      5-min Rain = 0
KCO2 160250Z 12013KT 23/17 A2995 RMK A01 T02320168  RH  067%=      5-min Rain = 0
KCO2 160251Z 12013G18KT 23/17 A2995 RMK A01 T02320168  RH  067%=      5-min Rain = 0
KCO2 160252Z 12013G18KT 23/17 A2995 RMK A01 T02330169  RH  067%=      5-min Rain = 0
KCO2 160253Z 11012G17KT 23/17 A2995 RMK A01 T02340169  RH  067%=      5-min Rain = 0
KCO2 160254Z 12013KT 23/17 A2996 RMK A01 T02330169  RH  067%=      5-min Rain = 0
KCO2 160255Z 12013G18KT 23/17 A2996 RMK A01 T02340169  RH  067%=      5-min Rain = 0
KCO2 160256Z 12011KT 23/17 A2996 RMK A01 T02340169  RH  067%=      5-min Rain = 0
KCO2 160257Z 12011KT 23/17 A2996 RMK A01 T02340169  RH  067%=      5-min Rain = 0
KCO2 160258Z 12011KT 23/17 A2996 RMK A01 T02340169  RH  067%=      5-min Rain = 0
KCO2 160259Z 12014KT 23/17 A2996 RMK A01 T02340169  RH  067%=      5-min Rain = 0
KCO2 160300Z 12012KT 24/17 A2996 RMK A01 T02350168  RH  066%=      5-min Rain = 0
KCO2 160301Z 12011KT 24/17 A2996 RMK A01 T02350168  RH  066%=      5-min Rain = 0
KCO2 160302Z 11013KT 24/17 A2996 RMK A01 T02360167  RH  066%=      5-min Rain = 0
KCO2 160303Z 11011KT 24/17 A2996 RMK A01 T02370167  RH  065%=      5-min Rain = 0
KCO2 160304Z 12014KT 24/17 A2996 RMK A01 T02370167  RH  065%=      5-min Rain = 0
KCO2 160305Z 12014KT 24/17 A2997 RMK A01 T02370167  RH  065%=      5-min Rain = 0
KCO2 160306Z 11013KT 24/17 A2997 RMK A01 T02380167  RH  064%=      5-min Rain = 0
KCO2 160307Z 12016KT 24/17 A2997 RMK A01 T02380167  RH  064%=      5-min Rain = 0
KCO2 160308Z 12015KT 24/17 A2997 RMK A01 T02390167  RH  064%=      5-min Rain = 0
KCO2 160309Z 11014G19KT 24/17 A2997 RMK A01 T02380168  RH  065%=      5-min Rain = 0
KCO2 160310Z 11011KT 24/17 A2997 RMK A01 T02380168  RH  065%=      5-min Rain = 0
KCO2 160311Z 11012KT 24/17 A2997 RMK A01 T02370168  RH  065%=      5-min Rain = 0
KCO2 160312Z 11013G18KT 24/17 A2997 RMK A01 T02360168  RH  066%=      5-min Rain = 0
KCO2 160313Z 11014KT 24/17 A2997 RMK A01 T02350169  RH  066%=      5-min Rain = 0
KCO2 160314Z 12011KT 24/17 A2997 RMK A01 T02350169  RH  067%=      5-min Rain = 0
KCO2 160315Z 12013KT 23/17 A2997 RMK A01 T02340169  RH  067%=      5-min Rain = 0
KCO2 160316Z 12012KT 23/17 A2998 RMK A01 T02330169  RH  067%=      5-min Rain = 0
KCO2 160317Z 12013KT 23/17 A2997 RMK A01 T02330169  RH  068%=      5-min Rain = 0
KCO2 160318Z 12011KT 23/17 A2997 RMK A01 T02310169  RH  068%=      5-min Rain = 0
KCO2 160319Z 12012KT 23/17 A2997 RMK A01 T02310169  RH  068%=      5-min Rain = 0
KCO2 160320Z 12011KT 23/17 A2997 RMK A01 T02300170  RH  069%=      5-min Rain = 0
KCO2 160321Z 12013KT 23/17 A2997 RMK A01 T02300170  RH  069%=      5-min Rain = 0
KCO2 160322Z 12014KT 23/17 A2997 RMK A01 T02290170  RH  069%=      5-min Rain = 0
KCO2 160323Z 12012KT 23/17 A2998 RMK A01 T02290170  RH  069%=      5-min Rain = 0
KCO2 160324Z 12010KT 23/17 A2998 RMK A01 T02290171  RH  070%=      5-min Rain = 0
KCO2 160325Z 12010KT 23/17 A2998 RMK A01 T02280170  RH  070%=      5-min Rain = 0
KCO2 160326Z 12009KT 23/17 A2998 RMK A01 T02280170  RH  070%=      5-min Rain = 0
KCO2 160327Z 12009KT 23/17 A2998 RMK A01 T02280171  RH  070%=      5-min Rain = 0
KCO2 160328Z 12011KT 23/17 A2998 RMK A01 T02270171  RH  071%=      5-min Rain = 0
KCO2 160329Z 13011KT 23/17 A2998 RMK A01 T02270172  RH  071%=      5-min Rain = 0
KCO2 160330Z 13013KT 23/17 A2998 RMK A01 T02270172  RH  071%=      5-min Rain = 0
KCO2 160331Z 13013KT 23/17 A2997 RMK A01 T02270172  RH  071%=      5-min Rain = 0
KCO2 160332Z 13013KT 23/17 A2997 RMK A01 T02260172  RH  071%=      5-min Rain = 0
KCO2 160333Z 13013KT 23/17 A2997 RMK A01 T02260173  RH  072%=      5-min Rain = 0
KCO2 160334Z 13014KT 23/17 A2997 RMK A01 T02260173  RH  072%=      5-min Rain = 0
KCO2 160335Z 13014KT 23/17 A2997 RMK A01 T02260173  RH  072%=      5-min Rain = 0
KCO2 160336Z 14014KT 23/17 A2997 RMK A01 T02260173  RH  072%=      5-min Rain = 0
KCO2 160337Z 14012KT 23/17 A2997 RMK A01 T02260173  RH  072%=      5-min Rain = 0
KCO2 160338Z 14011KT 23/17 A2997 RMK A01 T02260173  RH  072%=      5-min Rain = 0
KCO2 160339Z 14014KT 23/17 A2997 RMK A01 T02260173  RH  072%=      5-min Rain = 0
KCO2 160340Z 14014KT 23/17 A2997 RMK A01 T02260172  RH  071%=      5-min Rain = 0
KCO2 160341Z 14012KT 23/17 A2997 RMK A01 T02260172  RH  071%=      5-min Rain = 0
KCO2 160342Z 14012KT 23/17 A2997 RMK A01 T02260171  RH  071%=      5-min Rain = 0
KCO2 160343Z 14015KT 23/17 A2997 RMK A01 T02270170  RH  070%=      5-min Rain = 0
KCO2 160344Z 15013KT 23/17 A2997 RMK A01 T02280170  RH  070%=      5-min Rain = 0
KCO2 160345Z 15011KT 23/17 A2997 RMK A01 T02280170  RH  070%=      5-min Rain = 0
KCO2 160346Z 15011KT 23/17 A2997 RMK A01 T02280170  RH  070%=      5-min Rain = 0
KCO2 160347Z 14012KT 23/17 A2997 RMK A01 T02280170  RH  069%=      5-min Rain = 0
KCO2 160348Z 14012KT 23/17 A2997 RMK A01 T02290169  RH  069%=      5-min Rain = 0
KCO2 160349Z 14012KT 23/17 A2997 RMK A01 T02290169  RH  069%=      5-min Rain = 0
KCO2 160350Z 14013G18KT 23/17 A2997 RMK A01 T02300169  RH  069%=      5-min Rain = 0
KCO2 160351Z 14013KT 23/17 A2997 RMK A01 T02300169  RH  068%=      5-min Rain = 0
KCO2 160352Z 14014KT 23/17 A2997 RMK A01 T02300168  RH  068%=      5-min Rain = 0
KCO2 160353Z 13014KT 23/17 A2997 RMK A01 T02310167  RH  068%=      5-min Rain = 0
KCO2 160354Z 13012KT 23/17 A2997 RMK A01 T02310168  RH  068%=      5-min Rain = 0
KCO2 160355Z 13013KT 23/17 A2997 RMK A01 T02310168  RH  068%=      5-min Rain = 0
KCO2 160356Z 13013G18KT 23/17 A2997 RMK A01 T02310168  RH  068%=      5-min Rain = 0
KCO2 160357Z 13011G16KT 23/17 A2997 RMK A01 T02300168  RH  068%=      5-min Rain = 0
KCO2 160358Z 13014KT 23/17 A2997 RMK A01 T02300169  RH  068%=      5-min Rain = 0
KCO2 160359Z 13011KT 23/17 A2997 RMK A01 T02290168  RH  068%=      5-min Rain = 0
KCO2 160400Z 13013KT 23/17 A2997 RMK A01 T02290168  RH  069%=      5-min Rain = 0
KCO2 160401Z 12014KT 23/17 A2997 RMK A01 T02290168  RH  068%=      5-min Rain = 0
KCO2 160402Z 13013KT 23/17 A2997 RMK A01 T02290168  RH  068%=      5-min Rain = 0
KCO2 160403Z 13012KT 23/17 A2997 RMK A01 T02290168  RH  068%=      5-min Rain = 0
KCO2 160404Z 13012KT 23/17 A2997 RMK A01 T02290168  RH  068%=      5-min Rain = 0
KCO2 160405Z 12010KT 23/17 A2997 RMK A01 T02280167  RH  068%=      5-min Rain = 0
KCO2 160406Z 13011KT 23/17 A2997 RMK A01 T02280167  RH  068%=      5-min Rain = 0
KCO2 160407Z 13010KT 23/17 A2997 RMK A01 T02280167  RH  068%=      5-min Rain = 0
KCO2 160408Z 13012KT 23/17 A2997 RMK A01 T02270166  RH  068%=      5-min Rain = 0
KCO2 160409Z 13010KT 23/17 A2997 RMK A01 T02270166  RH  068%=      5-min Rain = 0
KCO2 160410Z 13009KT 23/17 A2997 RMK A01 T02270165  RH  068%=      5-min Rain = 0
KCO2 160411Z 13008KT 23/17 A2997 RMK A01 T02280165  RH  068%=      5-min Rain = 0
KCO2 160412Z 13008KT 23/17 A2997 RMK A01 T02270165  RH  068%=      5-min Rain = 0
KCO2 160413Z 13008KT 23/16 A2997 RMK A01 T02270163  RH  067%=      5-min Rain = 0
KCO2 160414Z 13009KT 23/16 A2997 RMK A01 T02260163  RH  067%=      5-min Rain = 0
KCO2 160415Z 13010KT 23/16 A2997 RMK A01 T02260162  RH  067%=      5-min Rain = 0
KCO2 160416Z 13008KT 23/16 A2997 RMK A01 T02270162  RH  067%=      5-min Rain = 0
KCO2 160417Z 13008KT 23/16 A2997 RMK A01 T02270162  RH  067%=      5-min Rain = 0
KCO2 160418Z 13009KT 23/16 A2997 RMK A01 T02270162  RH  067%=      5-min Rain = 0
KCO2 160419Z 12007KT 23/16 A2997 RMK A01 T02270161  RH  067%=      5-min Rain = 0
KCO2 160420Z 13008KT 23/16 A2997 RMK A01 T02260161  RH  067%=      5-min Rain = 0
KCO2 160421Z 12008KT 23/16 A2997 RMK A01 T02260161  RH  067%=      5-min Rain = 0
KCO2 160422Z 12008KT 23/16 A2997 RMK A01 T02250161  RH  067%=      5-min Rain = 0
KCO2 160423Z 11008KT 23/16 A2997 RMK A01 T02250161  RH  067%=      5-min Rain = 0
KCO2 160424Z 12008KT 22/16 A2997 RMK A01 T02240161  RH  067%=      5-min Rain = 0
KCO2 160425Z 11009KT 22/16 A2997 RMK A01 T02240161  RH  067%=      5-min Rain = 0
KCO2 160426Z 11008KT 22/16 A2998 RMK A01 T02240160  RH  067%=      5-min Rain = 0
KCO2 160427Z 12007KT 22/16 A2998 RMK A01 T02240160  RH  067%=      5-min Rain = 0
KCO2 160428Z 13008KT 22/16 A2998 RMK A01 T02240160  RH  067%=      5-min Rain = 0
KCO2 160429Z 13007KT 22/16 A2998 RMK A01 T02230160  RH  067%=      5-min Rain = 0
KCO2 160430Z 12007KT 22/16 A2998 RMK A01 T02230160  RH  067%=      5-min Rain = 0
KCO2 160431Z 13008KT 22/16 A2997 RMK A01 T02220159  RH  067%=      5-min Rain = 0
KCO2 160432Z 13008KT 22/16 A2997 RMK A01 T02230159  RH  067%=      5-min Rain = 0
KCO2 160433Z 14007KT 22/16 A2997 RMK A01 T02220159  RH  067%=      5-min Rain = 0
KCO2 160434Z 14008KT 22/16 A2997 RMK A01 T02220158  RH  067%=      5-min Rain = 0
KCO2 160435Z 14008KT 22/16 A2997 RMK A01 T02220157  RH  067%=      5-min Rain = 0
KCO2 160436Z 14007KT 22/16 A2997 RMK A01 T02220157  RH  067%=      5-min Rain = 0
KCO2 160437Z 14008KT 22/16 A2997 RMK A01 T02220156  RH  066%=      5-min Rain = 0
KCO2 160438Z 14009KT 22/16 A2997 RMK A01 T02220156  RH  066%=      5-min Rain = 0
KCO2 160439Z 14008KT 22/16 A2997 RMK A01 T02230156  RH  066%=      5-min Rain = 0
KCO2 160440Z 14008KT 22/16 A2997 RMK A01 T02220155  RH  066%=      5-min Rain = 0
KCO2 160441Z 14008KT 22/16 A2997 RMK A01 T02230156  RH  066%=      5-min Rain = 0
KCO2 160442Z 14008KT 22/16 A2997 RMK A01 T02220155  RH  066%=      5-min Rain = 0
KCO2 160443Z 14008KT 22/16 A2997 RMK A01 T02220155  RH  066%=      5-min Rain = 0
KCO2 160444Z 13009KT 22/16 A2997 RMK A01 T02230155  RH  066%=      5-min Rain = 0
KCO2 160445Z 14009KT 22/15 A2997 RMK A01 T02230154  RH  065%=      5-min Rain = 0
KCO2 160446Z 13009KT 22/16 A2997 RMK A01 T02230155  RH  065%=      5-min Rain = 0
KCO2 160447Z 13010KT 22/15 A2997 RMK A01 T02240154  RH  065%=      5-min Rain = 0
KCO2 160448Z 13011KT 22/15 A2997 RMK A01 T02240154  RH  065%=      5-min Rain = 0
KCO2 160449Z 13009KT 23/15 A2997 RMK A01 T02250154  RH  064%=      5-min Rain = 0
KCO2 160450Z 13008KT 23/15 A2997 RMK A01 T02250154  RH  064%=      5-min Rain = 0
KCO2 160451Z 13009KT 23/15 A2997 RMK A01 T02250154  RH  064%=      5-min Rain = 0
KCO2 160452Z 13009KT 22/15 A2997 RMK A01 T02240154  RH  064%=      5-min Rain = 0
KCO2 160453Z 14009KT 22/15 A2997 RMK A01 T02240154  RH  064%=      5-min Rain = 0
KCO2 160454Z 14008KT 22/15 A2997 RMK A01 T02240154  RH  064%=      5-min Rain = 0
KCO2 160455Z 14010KT 22/15 A2997 RMK A01 T02240154  RH  064%=      5-min Rain = 0
KCO2 160456Z 14009KT 22/15 A2997 RMK A01 T02240154  RH  064%=      5-min Rain = 0
KCO2 160457Z 14009KT 22/15 A2997 RMK A01 T02240154  RH  064%=      5-min Rain = 0
KCO2 160458Z 14008KT 22/15 A2997 RMK A01 T02240154  RH  064%=      5-min Rain = 0
KCO2 160459Z 14007KT 22/15 A2997 RMK A01 T02240154  RH  065%=      5-min Rain = 0

Page generated in 0.0333 seconds.